﻿<?xml version="1.0" encoding="UTF-8" standalone="no" ?>
<gpx xmlns="http://www.topografix.com/GPX/1/1" creator="CompeGPS" version="1.1" xmlns:xsi="http://www.w3.org/2001/XMLSchema-instance" xsi:schemaLocation="http://www.topografix.com/GPX/1/1 http://www.topografix.com/GPX/1/1/gpx.xsd http://www.garmin.com/xmlschemas/GpxExtensions/v3 http://www.garmin.com/xmlschemas/GpxExtensionsv3.xsd http://www.garmin.com/xmlschemas/TrackPointExtension/v1 http://www.garmin.com/xmlschemas/TrackPointExtensionv1.xsd" xmlns:gpxtpx="http://www.garmin.com/xmlschemas/TrackPointExtension/v1">
  <metadata>
    <link href="http://www.compegps.com">
      <text>CompeGPS TEAM, SL</text>
    </link>
    <time>2013-04-27T13:11:20Z</time>
    <bounds maxlat="42.833571" maxlon="1.008543" minlat="42.801127" minlon="0.985214"/>
  </metadata>
<wpt lat="42.833571" lon="0.986631">
  <ele>889</ele>
  <name>Parking</name>
</wpt>
<wpt lat="42.804969" lon="0.992229">
  <ele>1450</ele>
  <name>Bif. cab. Le Hounta</name>
</wpt>
<wpt lat="42.802772" lon="0.994544">
  <ele>1550</ele>
  <name>Depart couloir</name>
</wpt>
<wpt lat="42.801127" lon="1.008396">
  <ele>2349</ele>
  <name>Port de Cornave</name>
</wpt>
<wpt lat="42.805935" lon="1.007175">
  <ele>2427</ele>
  <name>Tuc de Pourtillou</name>
</wpt>
<wpt lat="42.820028" lon="1.006614">
  <ele>2033</ele>
  <name>Cap de Raspe</name>
</wpt>
<wpt lat="42.828669" lon="1.004122">
  <ele>1821</ele>
  <name>Cab. du Clot du Lac</name>
</wpt>
<wpt lat="42.829720" lon="0.995983">
  <ele>1540</ele>
  <name>Cab. de Besset</name>
</wpt>
  <trk>
    <name>Cheminee de Cornave</name>
    <trkseg>
      <trkpt lat="42.833571" lon="0.986631">
        <ele>907.6</ele>
        <time>2013-04-21T05:28:15Z</time>
        <name>Parking</name>
      </trkpt>
      <trkpt lat="42.833481" lon="0.986713">
        <ele>907.1</ele>
        <time>2013-04-21T05:29:44Z</time>
      </trkpt>
      <trkpt lat="42.833446" lon="0.986806">
        <ele>908.1</ele>
        <time>2013-04-21T05:29:59Z</time>
      </trkpt>
      <trkpt lat="42.833389" lon="0.986913">
        <ele>909.5</ele>
        <time>2013-04-21T05:30:17Z</time>
      </trkpt>
      <trkpt lat="42.833281" lon="0.986971">
        <ele>912.9</ele>
        <time>2013-04-21T05:30:37Z</time>
      </trkpt>
      <trkpt lat="42.833157" lon="0.987007">
        <ele>916.3</ele>
        <time>2013-04-21T05:31:10Z</time>
      </trkpt>
      <trkpt lat="42.833020" lon="0.987063">
        <ele>919.6</ele>
        <time>2013-04-21T05:31:29Z</time>
      </trkpt>
      <trkpt lat="42.832868" lon="0.987054">
        <ele>922.5</ele>
        <time>2013-04-21T05:31:47Z</time>
      </trkpt>
      <trkpt lat="42.832709" lon="0.987017">
        <ele>925.4</ele>
        <time>2013-04-21T05:32:23Z</time>
      </trkpt>
      <trkpt lat="42.832585" lon="0.987006">
        <ele>928.3</ele>
        <time>2013-04-21T05:32:40Z</time>
      </trkpt>
      <trkpt lat="42.832461" lon="0.986990">
        <ele>930.7</ele>
        <time>2013-04-21T05:32:58Z</time>
      </trkpt>
      <trkpt lat="42.832274" lon="0.986953">
        <ele>935.5</ele>
        <time>2013-04-21T05:33:26Z</time>
      </trkpt>
      <trkpt lat="42.832079" lon="0.986837">
        <ele>940.3</ele>
        <time>2013-04-21T05:33:57Z</time>
      </trkpt>
      <trkpt lat="42.831906" lon="0.986757">
        <ele>942.7</ele>
        <time>2013-04-21T05:34:23Z</time>
      </trkpt>
      <trkpt lat="42.831744" lon="0.986651">
        <ele>947.5</ele>
        <time>2013-04-21T05:34:51Z</time>
      </trkpt>
      <trkpt lat="42.831641" lon="0.986499">
        <ele>951.4</ele>
        <time>2013-04-21T05:35:19Z</time>
      </trkpt>
      <trkpt lat="42.831494" lon="0.986355">
        <ele>955.2</ele>
        <time>2013-04-21T05:35:49Z</time>
      </trkpt>
      <trkpt lat="42.831220" lon="0.986219">
        <ele>960.5</ele>
        <time>2013-04-21T05:36:29Z</time>
      </trkpt>
      <trkpt lat="42.831098" lon="0.986148">
        <ele>962.9</ele>
        <time>2013-04-21T05:36:49Z</time>
      </trkpt>
      <trkpt lat="42.830905" lon="0.986023">
        <ele>965.3</ele>
        <time>2013-04-21T05:37:10Z</time>
      </trkpt>
      <trkpt lat="42.830750" lon="0.985937">
        <ele>968.2</ele>
        <time>2013-04-21T05:37:31Z</time>
      </trkpt>
      <trkpt lat="42.830569" lon="0.985864">
        <ele>971.1</ele>
        <time>2013-04-21T05:37:55Z</time>
      </trkpt>
      <trkpt lat="42.830423" lon="0.985802">
        <ele>973.5</ele>
        <time>2013-04-21T05:38:10Z</time>
      </trkpt>
      <trkpt lat="42.830336" lon="0.985677">
        <ele>975.9</ele>
        <time>2013-04-21T05:38:33Z</time>
      </trkpt>
      <trkpt lat="42.830191" lon="0.985607">
        <ele>979.2</ele>
        <time>2013-04-21T05:38:59Z</time>
      </trkpt>
      <trkpt lat="42.830119" lon="0.985442">
        <ele>981.2</ele>
        <time>2013-04-21T05:39:18Z</time>
      </trkpt>
      <trkpt lat="42.829947" lon="0.985356">
        <ele>983.6</ele>
        <time>2013-04-21T05:39:34Z</time>
      </trkpt>
      <trkpt lat="42.829768" lon="0.985303">
        <ele>986.5</ele>
        <time>2013-04-21T05:39:50Z</time>
      </trkpt>
      <trkpt lat="42.829613" lon="0.985255">
        <ele>988.8</ele>
        <time>2013-04-21T05:40:10Z</time>
      </trkpt>
      <trkpt lat="42.829485" lon="0.985214">
        <ele>990.8</ele>
        <time>2013-04-21T05:40:29Z</time>
      </trkpt>
      <trkpt lat="42.829245" lon="0.985373">
        <ele>995.1</ele>
        <time>2013-04-21T05:40:58Z</time>
      </trkpt>
      <trkpt lat="42.829016" lon="0.985400">
        <ele>996.5</ele>
        <time>2013-04-21T05:41:13Z</time>
      </trkpt>
      <trkpt lat="42.828914" lon="0.985425">
        <ele>997.5</ele>
        <time>2013-04-21T05:41:26Z</time>
      </trkpt>
      <trkpt lat="42.828791" lon="0.985517">
        <ele>998.0</ele>
        <time>2013-04-21T05:41:43Z</time>
      </trkpt>
      <trkpt lat="42.828686" lon="0.985638">
        <ele>998.0</ele>
        <time>2013-04-21T05:41:55Z</time>
      </trkpt>
      <trkpt lat="42.828550" lon="0.985789">
        <ele>998.5</ele>
        <time>2013-04-21T05:42:07Z</time>
      </trkpt>
      <trkpt lat="42.828408" lon="0.985880">
        <ele>1000.4</ele>
        <time>2013-04-21T05:42:22Z</time>
      </trkpt>
      <trkpt lat="42.828254" lon="0.985902">
        <ele>1001.3</ele>
        <time>2013-04-21T05:42:35Z</time>
      </trkpt>
      <trkpt lat="42.828142" lon="0.985994">
        <ele>1002.8</ele>
        <time>2013-04-21T05:42:46Z</time>
      </trkpt>
      <trkpt lat="42.828073" lon="0.986129">
        <ele>1003.3</ele>
        <time>2013-04-21T05:42:57Z</time>
      </trkpt>
      <trkpt lat="42.828018" lon="0.986238">
        <ele>1002.8</ele>
        <time>2013-04-21T05:43:07Z</time>
      </trkpt>
      <trkpt lat="42.827926" lon="0.986356">
        <ele>1002.8</ele>
        <time>2013-04-21T05:43:17Z</time>
      </trkpt>
      <trkpt lat="42.827844" lon="0.986507">
        <ele>1003.8</ele>
        <time>2013-04-21T05:43:28Z</time>
      </trkpt>
      <trkpt lat="42.827746" lon="0.986600">
        <ele>1006.2</ele>
        <time>2013-04-21T05:43:43Z</time>
      </trkpt>
      <trkpt lat="42.827623" lon="0.986706">
        <ele>1006.6</ele>
        <time>2013-04-21T05:43:55Z</time>
      </trkpt>
      <trkpt lat="42.827532" lon="0.986829">
        <ele>1008.1</ele>
        <time>2013-04-21T05:44:09Z</time>
      </trkpt>
      <trkpt lat="42.827426" lon="0.986921">
        <ele>1009.0</ele>
        <time>2013-04-21T05:44:21Z</time>
      </trkpt>
      <trkpt lat="42.827303" lon="0.987055">
        <ele>1010.5</ele>
        <time>2013-04-21T05:44:34Z</time>
      </trkpt>
      <trkpt lat="42.827209" lon="0.987138">
        <ele>1011.9</ele>
        <time>2013-04-21T05:44:45Z</time>
      </trkpt>
      <trkpt lat="42.827110" lon="0.987203">
        <ele>1013.4</ele>
        <time>2013-04-21T05:44:57Z</time>
      </trkpt>
      <trkpt lat="42.827013" lon="0.987291">
        <ele>1015.3</ele>
        <time>2013-04-21T05:45:12Z</time>
      </trkpt>
      <trkpt lat="42.826895" lon="0.987380">
        <ele>1017.7</ele>
        <time>2013-04-21T05:45:25Z</time>
      </trkpt>
      <trkpt lat="42.826784" lon="0.987556">
        <ele>1020.1</ele>
        <time>2013-04-21T05:45:41Z</time>
      </trkpt>
      <trkpt lat="42.826655" lon="0.987701">
        <ele>1023.0</ele>
        <time>2013-04-21T05:46:09Z</time>
      </trkpt>
      <trkpt lat="42.826508" lon="0.987834">
        <ele>1026.3</ele>
        <time>2013-04-21T05:46:28Z</time>
      </trkpt>
      <trkpt lat="42.826435" lon="0.987958">
        <ele>1028.8</ele>
        <time>2013-04-21T05:46:49Z</time>
      </trkpt>
      <trkpt lat="42.826361" lon="0.987998">
        <ele>1030.7</ele>
        <time>2013-04-21T05:47:04Z</time>
      </trkpt>
      <trkpt lat="42.826210" lon="0.988071">
        <ele>1032.6</ele>
        <time>2013-04-21T05:47:15Z</time>
      </trkpt>
      <trkpt lat="42.826121" lon="0.988160">
        <ele>1033.6</ele>
        <time>2013-04-21T05:47:26Z</time>
      </trkpt>
      <trkpt lat="42.825987" lon="0.988251">
        <ele>1035.5</ele>
        <time>2013-04-21T05:47:55Z</time>
      </trkpt>
      <trkpt lat="42.825895" lon="0.988295">
        <ele>1037.4</ele>
        <time>2013-04-21T05:48:06Z</time>
      </trkpt>
      <trkpt lat="42.825797" lon="0.988342">
        <ele>1038.8</ele>
        <time>2013-04-21T05:48:18Z</time>
      </trkpt>
      <trkpt lat="42.825700" lon="0.988411">
        <ele>1039.8</ele>
        <time>2013-04-21T05:48:28Z</time>
      </trkpt>
      <trkpt lat="42.825611" lon="0.988489">
        <ele>1041.2</ele>
        <time>2013-04-21T05:48:38Z</time>
      </trkpt>
      <trkpt lat="42.825539" lon="0.988581">
        <ele>1043.2</ele>
        <time>2013-04-21T05:48:49Z</time>
      </trkpt>
      <trkpt lat="42.825465" lon="0.988649">
        <ele>1045.1</ele>
        <time>2013-04-21T05:49:01Z</time>
      </trkpt>
      <trkpt lat="42.825372" lon="0.988727">
        <ele>1047.0</ele>
        <time>2013-04-21T05:49:16Z</time>
      </trkpt>
      <trkpt lat="42.825279" lon="0.988777">
        <ele>1048.0</ele>
        <time>2013-04-21T05:49:29Z</time>
      </trkpt>
      <trkpt lat="42.825196" lon="0.988834">
        <ele>1049.4</ele>
        <time>2013-04-21T05:49:41Z</time>
      </trkpt>
      <trkpt lat="42.825120" lon="0.988903">
        <ele>1051.3</ele>
        <time>2013-04-21T05:49:50Z</time>
      </trkpt>
      <trkpt lat="42.825048" lon="0.988985">
        <ele>1052.8</ele>
        <time>2013-04-21T05:50:02Z</time>
      </trkpt>
      <trkpt lat="42.824957" lon="0.989040">
        <ele>1054.7</ele>
        <time>2013-04-21T05:50:17Z</time>
      </trkpt>
      <trkpt lat="42.824835" lon="0.989075">
        <ele>1057.1</ele>
        <time>2013-04-21T05:50:33Z</time>
      </trkpt>
      <trkpt lat="42.824726" lon="0.989144">
        <ele>1058.6</ele>
        <time>2013-04-21T05:50:47Z</time>
      </trkpt>
      <trkpt lat="42.824627" lon="0.989200">
        <ele>1059.5</ele>
        <time>2013-04-21T05:50:58Z</time>
      </trkpt>
      <trkpt lat="42.824546" lon="0.989287">
        <ele>1060.9</ele>
        <time>2013-04-21T05:51:09Z</time>
      </trkpt>
      <trkpt lat="42.824450" lon="0.989373">
        <ele>1062.9</ele>
        <time>2013-04-21T05:51:23Z</time>
      </trkpt>
      <trkpt lat="42.824372" lon="0.989458">
        <ele>1064.8</ele>
        <time>2013-04-21T05:51:39Z</time>
      </trkpt>
      <trkpt lat="42.824246" lon="0.989577">
        <ele>1067.2</ele>
        <time>2013-04-21T05:51:57Z</time>
      </trkpt>
      <trkpt lat="42.824186" lon="0.989730">
        <ele>1070.6</ele>
        <time>2013-04-21T05:52:18Z</time>
      </trkpt>
      <trkpt lat="42.824240" lon="0.989941">
        <ele>1070.1</ele>
        <time>2013-04-21T05:55:52Z</time>
      </trkpt>
      <trkpt lat="42.824266" lon="0.990094">
        <ele>1071.5</ele>
        <time>2013-04-21T05:56:07Z</time>
      </trkpt>
      <trkpt lat="42.824198" lon="0.990129">
        <ele>1071.1</ele>
        <time>2013-04-21T05:56:32Z</time>
      </trkpt>
      <trkpt lat="42.824148" lon="0.990075">
        <ele>1071.1</ele>
        <time>2013-04-21T05:56:55Z</time>
      </trkpt>
      <trkpt lat="42.824042" lon="0.990070">
        <ele>1074.9</ele>
        <time>2013-04-21T05:57:49Z</time>
      </trkpt>
      <trkpt lat="42.823922" lon="0.989973">
        <ele>1075.8</ele>
        <time>2013-04-21T05:58:17Z</time>
      </trkpt>
      <trkpt lat="42.823806" lon="0.989879">
        <ele>1077.8</ele>
        <time>2013-04-21T05:58:42Z</time>
      </trkpt>
      <trkpt lat="42.823764" lon="0.989789">
        <ele>1079.7</ele>
        <time>2013-04-21T05:58:57Z</time>
      </trkpt>
      <trkpt lat="42.823584" lon="0.989667">
        <ele>1081.1</ele>
        <time>2013-04-21T05:59:13Z</time>
      </trkpt>
      <trkpt lat="42.823389" lon="0.989668">
        <ele>1084.0</ele>
        <time>2013-04-21T05:59:39Z</time>
      </trkpt>
      <trkpt lat="42.823213" lon="0.989641">
        <ele>1088.3</ele>
        <time>2013-04-21T06:00:13Z</time>
      </trkpt>
      <trkpt lat="42.823004" lon="0.989611">
        <ele>1091.7</ele>
        <time>2013-04-21T06:00:32Z</time>
      </trkpt>
      <trkpt lat="42.822853" lon="0.989629">
        <ele>1095.1</ele>
        <time>2013-04-21T06:00:58Z</time>
      </trkpt>
      <trkpt lat="42.822466" lon="0.989695">
        <ele>1098.0</ele>
        <time>2013-04-21T06:01:24Z</time>
      </trkpt>
      <trkpt lat="42.822372" lon="0.989763">
        <ele>1098.0</ele>
        <time>2013-04-21T06:01:51Z</time>
      </trkpt>
      <trkpt lat="42.822344" lon="0.989691">
        <ele>1099.9</ele>
        <time>2013-04-21T06:02:07Z</time>
      </trkpt>
      <trkpt lat="42.822298" lon="0.989590">
        <ele>1101.8</ele>
        <time>2013-04-21T06:02:21Z</time>
      </trkpt>
      <trkpt lat="42.822257" lon="0.989606">
        <ele>1102.8</ele>
        <time>2013-04-21T06:03:13Z</time>
      </trkpt>
      <trkpt lat="42.822173" lon="0.989528">
        <ele>1104.2</ele>
        <time>2013-04-21T06:03:22Z</time>
      </trkpt>
      <trkpt lat="42.822055" lon="0.989443">
        <ele>1104.7</ele>
        <time>2013-04-21T06:03:30Z</time>
      </trkpt>
      <trkpt lat="42.821928" lon="0.989398">
        <ele>1106.6</ele>
        <time>2013-04-21T06:03:38Z</time>
      </trkpt>
      <trkpt lat="42.821813" lon="0.989356">
        <ele>1108.5</ele>
        <time>2013-04-21T06:03:46Z</time>
      </trkpt>
      <trkpt lat="42.821732" lon="0.989257">
        <ele>1108.1</ele>
        <time>2013-04-21T06:03:54Z</time>
      </trkpt>
      <trkpt lat="42.821641" lon="0.989192">
        <ele>1109.0</ele>
        <time>2013-04-21T06:04:01Z</time>
      </trkpt>
      <trkpt lat="42.821541" lon="0.989122">
        <ele>1109.5</ele>
        <time>2013-04-21T06:04:09Z</time>
      </trkpt>
      <trkpt lat="42.821439" lon="0.989056">
        <ele>1110.5</ele>
        <time>2013-04-21T06:04:17Z</time>
      </trkpt>
      <trkpt lat="42.821354" lon="0.988984">
        <ele>1111.4</ele>
        <time>2013-04-21T06:04:24Z</time>
      </trkpt>
      <trkpt lat="42.821279" lon="0.988912">
        <ele>1110.9</ele>
        <time>2013-04-21T06:04:32Z</time>
      </trkpt>
      <trkpt lat="42.821224" lon="0.988807">
        <ele>1110.9</ele>
        <time>2013-04-21T06:04:56Z</time>
      </trkpt>
      <trkpt lat="42.821132" lon="0.988738">
        <ele>1111.4</ele>
        <time>2013-04-21T06:06:20Z</time>
      </trkpt>
      <trkpt lat="42.821052" lon="0.988676">
        <ele>1113.3</ele>
        <time>2013-04-21T06:06:35Z</time>
      </trkpt>
      <trkpt lat="42.820966" lon="0.988667">
        <ele>1115.3</ele>
        <time>2013-04-21T06:06:49Z</time>
      </trkpt>
      <trkpt lat="42.820878" lon="0.988632">
        <ele>1115.3</ele>
        <time>2013-04-21T06:07:00Z</time>
      </trkpt>
      <trkpt lat="42.820779" lon="0.988669">
        <ele>1114.8</ele>
        <time>2013-04-21T06:07:11Z</time>
      </trkpt>
      <trkpt lat="42.820747" lon="0.988596">
        <ele>1115.8</ele>
        <time>2013-04-21T06:07:29Z</time>
      </trkpt>
      <trkpt lat="42.820669" lon="0.988561">
        <ele>1118.6</ele>
        <time>2013-04-21T06:07:43Z</time>
      </trkpt>
      <trkpt lat="42.820578" lon="0.988548">
        <ele>1120.1</ele>
        <time>2013-04-21T06:08:19Z</time>
      </trkpt>
      <trkpt lat="42.820492" lon="0.988543">
        <ele>1122.0</ele>
        <time>2013-04-21T06:08:31Z</time>
      </trkpt>
      <trkpt lat="42.820400" lon="0.988513">
        <ele>1123.9</ele>
        <time>2013-04-21T06:08:43Z</time>
      </trkpt>
      <trkpt lat="42.820312" lon="0.988520">
        <ele>1123.9</ele>
        <time>2013-04-21T06:08:56Z</time>
      </trkpt>
      <trkpt lat="42.820216" lon="0.988562">
        <ele>1123.4</ele>
        <time>2013-04-21T06:09:05Z</time>
      </trkpt>
      <trkpt lat="42.820134" lon="0.988623">
        <ele>1124.4</ele>
        <time>2013-04-21T06:09:16Z</time>
      </trkpt>
      <trkpt lat="42.820048" lon="0.988682">
        <ele>1125.4</ele>
        <time>2013-04-21T06:09:27Z</time>
      </trkpt>
      <trkpt lat="42.819954" lon="0.988732">
        <ele>1125.8</ele>
        <time>2013-04-21T06:09:43Z</time>
      </trkpt>
      <trkpt lat="42.819855" lon="0.988756">
        <ele>1126.3</ele>
        <time>2013-04-21T06:09:59Z</time>
      </trkpt>
      <trkpt lat="42.819758" lon="0.988698">
        <ele>1127.8</ele>
        <time>2013-04-21T06:10:18Z</time>
      </trkpt>
      <trkpt lat="42.819688" lon="0.988621">
        <ele>1129.2</ele>
        <time>2013-04-21T06:10:32Z</time>
      </trkpt>
      <trkpt lat="42.819617" lon="0.988539">
        <ele>1131.1</ele>
        <time>2013-04-21T06:10:46Z</time>
      </trkpt>
      <trkpt lat="42.819542" lon="0.988515">
        <ele>1133.1</ele>
        <time>2013-04-21T06:11:00Z</time>
      </trkpt>
      <trkpt lat="42.819547" lon="0.988613">
        <ele>1135.4</ele>
        <time>2013-04-21T06:11:15Z</time>
      </trkpt>
      <trkpt lat="42.819537" lon="0.988723">
        <ele>1137.4</ele>
        <time>2013-04-21T06:11:29Z</time>
      </trkpt>
      <trkpt lat="42.819483" lon="0.988843">
        <ele>1139.3</ele>
        <time>2013-04-21T06:11:43Z</time>
      </trkpt>
      <trkpt lat="42.819434" lon="0.988782">
        <ele>1141.7</ele>
        <time>2013-04-21T06:11:59Z</time>
      </trkpt>
      <trkpt lat="42.819361" lon="0.988738">
        <ele>1144.1</ele>
        <time>2013-04-21T06:12:16Z</time>
      </trkpt>
      <trkpt lat="42.819291" lon="0.988670">
        <ele>1147.0</ele>
        <time>2013-04-21T06:12:34Z</time>
      </trkpt>
      <trkpt lat="42.819224" lon="0.988574">
        <ele>1150.8</ele>
        <time>2013-04-21T06:12:56Z</time>
      </trkpt>
      <trkpt lat="42.819136" lon="0.988489">
        <ele>1153.7</ele>
        <time>2013-04-21T06:13:19Z</time>
      </trkpt>
      <trkpt lat="42.819035" lon="0.988410">
        <ele>1157.6</ele>
        <time>2013-04-21T06:13:44Z</time>
      </trkpt>
      <trkpt lat="42.818913" lon="0.988304">
        <ele>1162.4</ele>
        <time>2013-04-21T06:14:17Z</time>
      </trkpt>
      <trkpt lat="42.818831" lon="0.988272">
        <ele>1166.2</ele>
        <time>2013-04-21T06:14:41Z</time>
      </trkpt>
      <trkpt lat="42.818729" lon="0.988228">
        <ele>1169.6</ele>
        <time>2013-04-21T06:15:04Z</time>
      </trkpt>
      <trkpt lat="42.818645" lon="0.988162">
        <ele>1172.0</ele>
        <time>2013-04-21T06:15:23Z</time>
      </trkpt>
      <trkpt lat="42.818511" lon="0.988158">
        <ele>1176.3</ele>
        <time>2013-04-21T06:15:53Z</time>
      </trkpt>
      <trkpt lat="42.818441" lon="0.988119">
        <ele>1180.2</ele>
        <time>2013-04-21T06:16:16Z</time>
      </trkpt>
      <trkpt lat="42.818346" lon="0.988057">
        <ele>1185.4</ele>
        <time>2013-04-21T06:16:45Z</time>
      </trkpt>
      <trkpt lat="42.818214" lon="0.987966">
        <ele>1190.7</ele>
        <time>2013-04-21T06:17:18Z</time>
      </trkpt>
      <trkpt lat="42.818144" lon="0.987861">
        <ele>1193.1</ele>
        <time>2013-04-21T06:17:36Z</time>
      </trkpt>
      <trkpt lat="42.818082" lon="0.987721">
        <ele>1196.0</ele>
        <time>2013-04-21T06:17:53Z</time>
      </trkpt>
      <trkpt lat="42.817995" lon="0.987618">
        <ele>1196.5</ele>
        <time>2013-04-21T06:18:06Z</time>
      </trkpt>
      <trkpt lat="42.817909" lon="0.987546">
        <ele>1197.5</ele>
        <time>2013-04-21T06:18:16Z</time>
      </trkpt>
      <trkpt lat="42.817821" lon="0.987485">
        <ele>1197.9</ele>
        <time>2013-04-21T06:18:26Z</time>
      </trkpt>
      <trkpt lat="42.817725" lon="0.987470">
        <ele>1198.9</ele>
        <time>2013-04-21T06:18:37Z</time>
      </trkpt>
      <trkpt lat="42.817611" lon="0.987412">
        <ele>1200.3</ele>
        <time>2013-04-21T06:18:51Z</time>
      </trkpt>
      <trkpt lat="42.817511" lon="0.987371">
        <ele>1202.3</ele>
        <time>2013-04-21T06:19:07Z</time>
      </trkpt>
      <trkpt lat="42.817397" lon="0.987346">
        <ele>1203.2</ele>
        <time>2013-04-21T06:19:20Z</time>
      </trkpt>
      <trkpt lat="42.817280" lon="0.987288">
        <ele>1204.2</ele>
        <time>2013-04-21T06:19:34Z</time>
      </trkpt>
      <trkpt lat="42.817181" lon="0.987225">
        <ele>1205.2</ele>
        <time>2013-04-21T06:19:46Z</time>
      </trkpt>
      <trkpt lat="42.817049" lon="0.987174">
        <ele>1206.1</ele>
        <time>2013-04-21T06:20:03Z</time>
      </trkpt>
      <trkpt lat="42.816933" lon="0.987126">
        <ele>1208.0</ele>
        <time>2013-04-21T06:20:18Z</time>
      </trkpt>
      <trkpt lat="42.816775" lon="0.987065">
        <ele>1210.0</ele>
        <time>2013-04-21T06:20:53Z</time>
      </trkpt>
      <trkpt lat="42.816659" lon="0.987083">
        <ele>1212.4</ele>
        <time>2013-04-21T06:21:11Z</time>
      </trkpt>
      <trkpt lat="42.816563" lon="0.987141">
        <ele>1211.9</ele>
        <time>2013-04-21T06:21:22Z</time>
      </trkpt>
      <trkpt lat="42.816475" lon="0.987192">
        <ele>1212.4</ele>
        <time>2013-04-21T06:21:33Z</time>
      </trkpt>
      <trkpt lat="42.816360" lon="0.987216">
        <ele>1212.8</ele>
        <time>2013-04-21T06:21:46Z</time>
      </trkpt>
      <trkpt lat="42.816210" lon="0.987281">
        <ele>1214.8</ele>
        <time>2013-04-21T06:21:58Z</time>
      </trkpt>
      <trkpt lat="42.816059" lon="0.987316">
        <ele>1216.7</ele>
        <time>2013-04-21T06:22:16Z</time>
      </trkpt>
      <trkpt lat="42.815903" lon="0.987321">
        <ele>1218.1</ele>
        <time>2013-04-21T06:22:32Z</time>
      </trkpt>
      <trkpt lat="42.815708" lon="0.987353">
        <ele>1219.6</ele>
        <time>2013-04-21T06:22:49Z</time>
      </trkpt>
      <trkpt lat="42.815556" lon="0.987406">
        <ele>1221.0</ele>
        <time>2013-04-21T06:23:03Z</time>
      </trkpt>
      <trkpt lat="42.815428" lon="0.987460">
        <ele>1221.5</ele>
        <time>2013-04-21T06:23:16Z</time>
      </trkpt>
      <trkpt lat="42.815307" lon="0.987502">
        <ele>1223.9</ele>
        <time>2013-04-21T06:23:32Z</time>
      </trkpt>
      <trkpt lat="42.815204" lon="0.987573">
        <ele>1226.3</ele>
        <time>2013-04-21T06:23:48Z</time>
      </trkpt>
      <trkpt lat="42.815089" lon="0.987639">
        <ele>1228.7</ele>
        <time>2013-04-21T06:24:03Z</time>
      </trkpt>
      <trkpt lat="42.814934" lon="0.987668">
        <ele>1230.6</ele>
        <time>2013-04-21T06:24:51Z</time>
      </trkpt>
      <trkpt lat="42.814806" lon="0.987720">
        <ele>1232.1</ele>
        <time>2013-04-21T06:25:14Z</time>
      </trkpt>
      <trkpt lat="42.814718" lon="0.987751">
        <ele>1234.0</ele>
        <time>2013-04-21T06:25:27Z</time>
      </trkpt>
      <trkpt lat="42.814632" lon="0.987869">
        <ele>1234.9</ele>
        <time>2013-04-21T06:25:43Z</time>
      </trkpt>
      <trkpt lat="42.814528" lon="0.987940">
        <ele>1236.9</ele>
        <time>2013-04-21T06:25:57Z</time>
      </trkpt>
      <trkpt lat="42.814402" lon="0.987996">
        <ele>1239.3</ele>
        <time>2013-04-21T06:26:14Z</time>
      </trkpt>
      <trkpt lat="42.814272" lon="0.988032">
        <ele>1239.8</ele>
        <time>2013-04-21T06:26:28Z</time>
      </trkpt>
      <trkpt lat="42.814182" lon="0.988158">
        <ele>1243.1</ele>
        <time>2013-04-21T06:26:47Z</time>
      </trkpt>
      <trkpt lat="42.814088" lon="0.988238">
        <ele>1244.1</ele>
        <time>2013-04-21T06:27:02Z</time>
      </trkpt>
      <trkpt lat="42.813968" lon="0.988287">
        <ele>1246.5</ele>
        <time>2013-04-21T06:27:16Z</time>
      </trkpt>
      <trkpt lat="42.813855" lon="0.988330">
        <ele>1248.9</ele>
        <time>2013-04-21T06:27:36Z</time>
      </trkpt>
      <trkpt lat="42.813686" lon="0.988315">
        <ele>1252.2</ele>
        <time>2013-04-21T06:27:59Z</time>
      </trkpt>
      <trkpt lat="42.813567" lon="0.988377">
        <ele>1255.1</ele>
        <time>2013-04-21T06:28:16Z</time>
      </trkpt>
      <trkpt lat="42.813459" lon="0.988440">
        <ele>1257.1</ele>
        <time>2013-04-21T06:28:32Z</time>
      </trkpt>
      <trkpt lat="42.813358" lon="0.988489">
        <ele>1259.0</ele>
        <time>2013-04-21T06:28:48Z</time>
      </trkpt>
      <trkpt lat="42.813240" lon="0.988582">
        <ele>1261.4</ele>
        <time>2013-04-21T06:29:07Z</time>
      </trkpt>
      <trkpt lat="42.813107" lon="0.988651">
        <ele>1262.8</ele>
        <time>2013-04-21T06:29:23Z</time>
      </trkpt>
      <trkpt lat="42.812977" lon="0.988704">
        <ele>1264.8</ele>
        <time>2013-04-21T06:29:39Z</time>
      </trkpt>
      <trkpt lat="42.812849" lon="0.988674">
        <ele>1267.6</ele>
        <time>2013-04-21T06:29:53Z</time>
      </trkpt>
      <trkpt lat="42.812749" lon="0.988675">
        <ele>1268.1</ele>
        <time>2013-04-21T06:30:05Z</time>
      </trkpt>
      <trkpt lat="42.812627" lon="0.988695">
        <ele>1269.6</ele>
        <time>2013-04-21T06:30:19Z</time>
      </trkpt>
      <trkpt lat="42.812452" lon="0.988648">
        <ele>1270.5</ele>
        <time>2013-04-21T06:30:30Z</time>
      </trkpt>
      <trkpt lat="42.812332" lon="0.988663">
        <ele>1272.0</ele>
        <time>2013-04-21T06:30:46Z</time>
      </trkpt>
      <trkpt lat="42.812229" lon="0.988751">
        <ele>1275.3</ele>
        <time>2013-04-21T06:31:02Z</time>
      </trkpt>
      <trkpt lat="42.812076" lon="0.988804">
        <ele>1279.2</ele>
        <time>2013-04-21T06:31:27Z</time>
      </trkpt>
      <trkpt lat="42.811978" lon="0.988872">
        <ele>1280.6</ele>
        <time>2013-04-21T06:31:43Z</time>
      </trkpt>
      <trkpt lat="42.811879" lon="0.988991">
        <ele>1283.0</ele>
        <time>2013-04-21T06:32:00Z</time>
      </trkpt>
      <trkpt lat="42.811806" lon="0.989094">
        <ele>1286.4</ele>
        <time>2013-04-21T06:32:15Z</time>
      </trkpt>
      <trkpt lat="42.811713" lon="0.989142">
        <ele>1287.8</ele>
        <time>2013-04-21T06:32:28Z</time>
      </trkpt>
      <trkpt lat="42.811631" lon="0.989209">
        <ele>1290.7</ele>
        <time>2013-04-21T06:32:46Z</time>
      </trkpt>
      <trkpt lat="42.811571" lon="0.989242">
        <ele>1291.7</ele>
        <time>2013-04-21T06:33:29Z</time>
      </trkpt>
      <trkpt lat="42.811511" lon="0.989222">
        <ele>1292.6</ele>
        <time>2013-04-21T06:33:43Z</time>
      </trkpt>
      <trkpt lat="42.811480" lon="0.989319">
        <ele>1295.0</ele>
        <time>2013-04-21T06:33:57Z</time>
      </trkpt>
      <trkpt lat="42.811402" lon="0.989354">
        <ele>1297.0</ele>
        <time>2013-04-21T06:34:13Z</time>
      </trkpt>
      <trkpt lat="42.811285" lon="0.989362">
        <ele>1299.4</ele>
        <time>2013-04-21T06:34:35Z</time>
      </trkpt>
      <trkpt lat="42.811190" lon="0.989365">
        <ele>1301.3</ele>
        <time>2013-04-21T06:35:22Z</time>
      </trkpt>
      <trkpt lat="42.811092" lon="0.989396">
        <ele>1303.2</ele>
        <time>2013-04-21T06:36:00Z</time>
      </trkpt>
      <trkpt lat="42.810990" lon="0.989425">
        <ele>1303.7</ele>
        <time>2013-04-21T06:36:21Z</time>
      </trkpt>
      <trkpt lat="42.810899" lon="0.989460">
        <ele>1303.7</ele>
        <time>2013-04-21T06:36:38Z</time>
      </trkpt>
      <trkpt lat="42.810801" lon="0.989475">
        <ele>1305.1</ele>
        <time>2013-04-21T06:36:58Z</time>
      </trkpt>
      <trkpt lat="42.810704" lon="0.989473">
        <ele>1305.1</ele>
        <time>2013-04-21T06:37:12Z</time>
      </trkpt>
      <trkpt lat="42.810644" lon="0.989470">
        <ele>1306.1</ele>
        <time>2013-04-21T06:37:38Z</time>
      </trkpt>
      <trkpt lat="42.810584" lon="0.989524">
        <ele>1306.6</ele>
        <time>2013-04-21T06:37:59Z</time>
      </trkpt>
      <trkpt lat="42.810540" lon="0.989595">
        <ele>1309.9</ele>
        <time>2013-04-21T06:38:22Z</time>
      </trkpt>
      <trkpt lat="42.810469" lon="0.989673">
        <ele>1313.3</ele>
        <time>2013-04-21T06:38:46Z</time>
      </trkpt>
      <trkpt lat="42.810395" lon="0.989753">
        <ele>1316.2</ele>
        <time>2013-04-21T06:39:07Z</time>
      </trkpt>
      <trkpt lat="42.810369" lon="0.989797">
        <ele>1316.2</ele>
        <time>2013-04-21T06:39:58Z</time>
      </trkpt>
      <trkpt lat="42.810326" lon="0.989809">
        <ele>1316.7</ele>
        <time>2013-04-21T06:40:39Z</time>
      </trkpt>
      <trkpt lat="42.810228" lon="0.989839">
        <ele>1319.1</ele>
        <time>2013-04-21T06:40:54Z</time>
      </trkpt>
      <trkpt lat="42.810129" lon="0.989847">
        <ele>1321.5</ele>
        <time>2013-04-21T06:41:06Z</time>
      </trkpt>
      <trkpt lat="42.810028" lon="0.989899">
        <ele>1322.9</ele>
        <time>2013-04-21T06:41:17Z</time>
      </trkpt>
      <trkpt lat="42.809927" lon="0.989959">
        <ele>1324.8</ele>
        <time>2013-04-21T06:41:29Z</time>
      </trkpt>
      <trkpt lat="42.809834" lon="0.989958">
        <ele>1326.3</ele>
        <time>2013-04-21T06:41:41Z</time>
      </trkpt>
      <trkpt lat="42.809746" lon="0.990020">
        <ele>1327.7</ele>
        <time>2013-04-21T06:41:55Z</time>
      </trkpt>
      <trkpt lat="42.809631" lon="0.990037">
        <ele>1329.6</ele>
        <time>2013-04-21T06:42:11Z</time>
      </trkpt>
      <trkpt lat="42.809534" lon="0.990075">
        <ele>1331.1</ele>
        <time>2013-04-21T06:42:24Z</time>
      </trkpt>
      <trkpt lat="42.809446" lon="0.990139">
        <ele>1333.5</ele>
        <time>2013-04-21T06:42:40Z</time>
      </trkpt>
      <trkpt lat="42.809317" lon="0.990146">
        <ele>1334.4</ele>
        <time>2013-04-21T06:43:17Z</time>
      </trkpt>
      <trkpt lat="42.809198" lon="0.990120">
        <ele>1335.9</ele>
        <time>2013-04-21T06:43:53Z</time>
      </trkpt>
      <trkpt lat="42.809083" lon="0.990066">
        <ele>1338.3</ele>
        <time>2013-04-21T06:44:14Z</time>
      </trkpt>
      <trkpt lat="42.809012" lon="0.990207">
        <ele>1340.2</ele>
        <time>2013-04-21T06:44:44Z</time>
      </trkpt>
      <trkpt lat="42.808943" lon="0.990278">
        <ele>1344.1</ele>
        <time>2013-04-21T06:45:11Z</time>
      </trkpt>
      <trkpt lat="42.808841" lon="0.990288">
        <ele>1345.0</ele>
        <time>2013-04-21T06:45:27Z</time>
      </trkpt>
      <trkpt lat="42.808757" lon="0.990283">
        <ele>1346.5</ele>
        <time>2013-04-21T06:45:52Z</time>
      </trkpt>
      <trkpt lat="42.808704" lon="0.990410">
        <ele>1349.8</ele>
        <time>2013-04-21T06:46:30Z</time>
      </trkpt>
      <trkpt lat="42.808644" lon="0.990467">
        <ele>1355.1</ele>
        <time>2013-04-21T06:47:03Z</time>
      </trkpt>
      <trkpt lat="42.808556" lon="0.990509">
        <ele>1357.5</ele>
        <time>2013-04-21T06:47:23Z</time>
      </trkpt>
      <trkpt lat="42.808480" lon="0.990514">
        <ele>1359.9</ele>
        <time>2013-04-21T06:47:48Z</time>
      </trkpt>
      <trkpt lat="42.808397" lon="0.990544">
        <ele>1361.8</ele>
        <time>2013-04-21T06:48:04Z</time>
      </trkpt>
      <trkpt lat="42.808302" lon="0.990551">
        <ele>1361.8</ele>
        <time>2013-04-21T06:48:26Z</time>
      </trkpt>
      <trkpt lat="42.808233" lon="0.990590">
        <ele>1364.2</ele>
        <time>2013-04-21T06:48:46Z</time>
      </trkpt>
      <trkpt lat="42.808115" lon="0.990632">
        <ele>1367.1</ele>
        <time>2013-04-21T06:49:12Z</time>
      </trkpt>
      <trkpt lat="42.808048" lon="0.990629">
        <ele>1368.1</ele>
        <time>2013-04-21T06:49:57Z</time>
      </trkpt>
      <trkpt lat="42.807972" lon="0.990671">
        <ele>1372.4</ele>
        <time>2013-04-21T06:50:28Z</time>
      </trkpt>
      <trkpt lat="42.807906" lon="0.990753">
        <ele>1375.8</ele>
        <time>2013-04-21T06:50:50Z</time>
      </trkpt>
      <trkpt lat="42.807822" lon="0.990788">
        <ele>1378.7</ele>
        <time>2013-04-21T06:51:32Z</time>
      </trkpt>
      <trkpt lat="42.807760" lon="0.990853">
        <ele>1380.6</ele>
        <time>2013-04-21T06:51:49Z</time>
      </trkpt>
      <trkpt lat="42.807672" lon="0.990869">
        <ele>1381.6</ele>
        <time>2013-04-21T06:52:03Z</time>
      </trkpt>
      <trkpt lat="42.807591" lon="0.990883">
        <ele>1383.0</ele>
        <time>2013-04-21T06:52:23Z</time>
      </trkpt>
      <trkpt lat="42.807492" lon="0.990907">
        <ele>1386.4</ele>
        <time>2013-04-21T06:52:49Z</time>
      </trkpt>
      <trkpt lat="42.807442" lon="0.990990">
        <ele>1391.7</ele>
        <time>2013-04-21T06:53:25Z</time>
      </trkpt>
      <trkpt lat="42.807357" lon="0.991026">
        <ele>1393.6</ele>
        <time>2013-04-21T06:53:42Z</time>
      </trkpt>
      <trkpt lat="42.807272" lon="0.991033">
        <ele>1394.5</ele>
        <time>2013-04-21T06:53:58Z</time>
      </trkpt>
      <trkpt lat="42.807185" lon="0.991008">
        <ele>1396.4</ele>
        <time>2013-04-21T06:54:17Z</time>
      </trkpt>
      <trkpt lat="42.807117" lon="0.991031">
        <ele>1399.3</ele>
        <time>2013-04-21T06:54:44Z</time>
      </trkpt>
      <trkpt lat="42.807029" lon="0.991032">
        <ele>1402.7</ele>
        <time>2013-04-21T06:55:12Z</time>
      </trkpt>
      <trkpt lat="42.806950" lon="0.991073">
        <ele>1405.6</ele>
        <time>2013-04-21T06:55:37Z</time>
      </trkpt>
      <trkpt lat="42.806871" lon="0.991111">
        <ele>1408.0</ele>
        <time>2013-04-21T06:55:59Z</time>
      </trkpt>
      <trkpt lat="42.806818" lon="0.991187">
        <ele>1411.3</ele>
        <time>2013-04-21T06:56:25Z</time>
      </trkpt>
      <trkpt lat="42.806781" lon="0.991258">
        <ele>1414.7</ele>
        <time>2013-04-21T06:57:04Z</time>
      </trkpt>
      <trkpt lat="42.806658" lon="0.991297">
        <ele>1417.1</ele>
        <time>2013-04-21T06:57:28Z</time>
      </trkpt>
      <trkpt lat="42.806565" lon="0.991298">
        <ele>1419.0</ele>
        <time>2013-04-21T06:57:51Z</time>
      </trkpt>
      <trkpt lat="42.806465" lon="0.991302">
        <ele>1420.5</ele>
        <time>2013-04-21T06:58:12Z</time>
      </trkpt>
      <trkpt lat="42.806391" lon="0.991350">
        <ele>1426.2</ele>
        <time>2013-04-21T06:59:55Z</time>
      </trkpt>
      <trkpt lat="42.806301" lon="0.991390">
        <ele>1430.1</ele>
        <time>2013-04-21T07:00:18Z</time>
      </trkpt>
      <trkpt lat="42.806245" lon="0.991454">
        <ele>1434.4</ele>
        <time>2013-04-21T07:00:39Z</time>
      </trkpt>
      <trkpt lat="42.806191" lon="0.991489">
        <ele>1437.3</ele>
        <time>2013-04-21T07:01:11Z</time>
      </trkpt>
      <trkpt lat="42.806307" lon="0.991628">
        <ele>1441.2</ele>
        <time>2013-04-21T07:01:48Z</time>
      </trkpt>
      <trkpt lat="42.806276" lon="0.991704">
        <ele>1445.0</ele>
        <time>2013-04-21T07:02:25Z</time>
      </trkpt>
      <trkpt lat="42.806212" lon="0.991816">
        <ele>1449.8</ele>
        <time>2013-04-21T07:03:20Z</time>
      </trkpt>
      <trkpt lat="42.806156" lon="0.991883">
        <ele>1452.2</ele>
        <time>2013-04-21T07:03:50Z</time>
      </trkpt>
      <trkpt lat="42.806076" lon="0.991910">
        <ele>1455.1</ele>
        <time>2013-04-21T07:04:30Z</time>
      </trkpt>
      <trkpt lat="42.805975" lon="0.991925">
        <ele>1455.6</ele>
        <time>2013-04-21T07:04:57Z</time>
      </trkpt>
      <trkpt lat="42.805871" lon="0.991947">
        <ele>1459.4</ele>
        <time>2013-04-21T07:05:22Z</time>
      </trkpt>
      <trkpt lat="42.805751" lon="0.991951">
        <ele>1463.3</ele>
        <time>2013-04-21T07:06:02Z</time>
      </trkpt>
      <trkpt lat="42.805684" lon="0.992017">
        <ele>1465.7</ele>
        <time>2013-04-21T07:07:06Z</time>
      </trkpt>
      <trkpt lat="42.805580" lon="0.992047">
        <ele>1468.6</ele>
        <time>2013-04-21T07:07:15Z</time>
      </trkpt>
      <trkpt lat="42.805447" lon="0.992052">
        <ele>1482.0</ele>
        <time>2013-04-21T07:34:53Z</time>
      </trkpt>
      <trkpt lat="42.805023" lon="0.992182">
        <ele>1479.1</ele>
        <time>2013-04-21T07:49:57Z</time>
      </trkpt>
      <trkpt lat="42.804969" lon="0.992229">
        <ele>1481.1</ele>
        <time>2013-04-21T07:50:31Z</time>
        <name>Bif. cab. Le Hounta</name>
      </trkpt>
      <trkpt lat="42.804916" lon="0.992306">
        <ele>1483.9</ele>
        <time>2013-04-21T07:50:58Z</time>
      </trkpt>
      <trkpt lat="42.804865" lon="0.992397">
        <ele>1486.8</ele>
        <time>2013-04-21T07:51:52Z</time>
      </trkpt>
      <trkpt lat="42.804831" lon="0.992482">
        <ele>1489.2</ele>
        <time>2013-04-21T07:52:16Z</time>
      </trkpt>
      <trkpt lat="42.804773" lon="0.992548">
        <ele>1492.6</ele>
        <time>2013-04-21T07:52:57Z</time>
      </trkpt>
      <trkpt lat="42.804677" lon="0.992622">
        <ele>1496.4</ele>
        <time>2013-04-21T07:53:30Z</time>
      </trkpt>
      <trkpt lat="42.804591" lon="0.992680">
        <ele>1500.8</ele>
        <time>2013-04-21T07:54:09Z</time>
      </trkpt>
      <trkpt lat="42.804492" lon="0.992737">
        <ele>1504.1</ele>
        <time>2013-04-21T07:54:41Z</time>
      </trkpt>
      <trkpt lat="42.804446" lon="0.992795">
        <ele>1506.5</ele>
        <time>2013-04-21T07:55:07Z</time>
      </trkpt>
      <trkpt lat="42.804370" lon="0.992859">
        <ele>1509.9</ele>
        <time>2013-04-21T07:55:35Z</time>
      </trkpt>
      <trkpt lat="42.804306" lon="0.992916">
        <ele>1512.8</ele>
        <time>2013-04-21T07:55:59Z</time>
      </trkpt>
      <trkpt lat="42.804237" lon="0.993015">
        <ele>1515.2</ele>
        <time>2013-04-21T07:56:29Z</time>
      </trkpt>
      <trkpt lat="42.804143" lon="0.993046">
        <ele>1518.1</ele>
        <time>2013-04-21T07:56:57Z</time>
      </trkpt>
      <trkpt lat="42.804066" lon="0.993081">
        <ele>1520.9</ele>
        <time>2013-04-21T07:57:22Z</time>
      </trkpt>
      <trkpt lat="42.803981" lon="0.993149">
        <ele>1524.8</ele>
        <time>2013-04-21T07:57:52Z</time>
      </trkpt>
      <trkpt lat="42.803914" lon="0.993261">
        <ele>1529.1</ele>
        <time>2013-04-21T07:58:22Z</time>
      </trkpt>
      <trkpt lat="42.803808" lon="0.993245">
        <ele>1531.0</ele>
        <time>2013-04-21T07:58:45Z</time>
      </trkpt>
      <trkpt lat="42.803739" lon="0.993235">
        <ele>1534.4</ele>
        <time>2013-04-21T07:59:12Z</time>
      </trkpt>
      <trkpt lat="42.803645" lon="0.993319">
        <ele>1537.8</ele>
        <time>2013-04-21T07:59:40Z</time>
      </trkpt>
      <trkpt lat="42.803589" lon="0.993392">
        <ele>1539.7</ele>
        <time>2013-04-21T08:00:05Z</time>
      </trkpt>
      <trkpt lat="42.803504" lon="0.993453">
        <ele>1542.6</ele>
        <time>2013-04-21T08:00:32Z</time>
      </trkpt>
      <trkpt lat="42.803429" lon="0.993493">
        <ele>1545.5</ele>
        <time>2013-04-21T08:00:58Z</time>
      </trkpt>
      <trkpt lat="42.803369" lon="0.993561">
        <ele>1548.3</ele>
        <time>2013-04-21T08:01:20Z</time>
      </trkpt>
      <trkpt lat="42.803302" lon="0.993650">
        <ele>1551.2</ele>
        <time>2013-04-21T08:01:46Z</time>
      </trkpt>
      <trkpt lat="42.803254" lon="0.993742">
        <ele>1554.6</ele>
        <time>2013-04-21T08:02:10Z</time>
      </trkpt>
      <trkpt lat="42.803200" lon="0.993819">
        <ele>1557.9</ele>
        <time>2013-04-21T08:02:39Z</time>
      </trkpt>
      <trkpt lat="42.803197" lon="0.993929">
        <ele>1562.8</ele>
        <time>2013-04-21T08:03:16Z</time>
      </trkpt>
      <trkpt lat="42.803137" lon="0.994048">
        <ele>1567.6</ele>
        <time>2013-04-21T08:03:52Z</time>
      </trkpt>
      <trkpt lat="42.803085" lon="0.994172">
        <ele>1571.9</ele>
        <time>2013-04-21T08:04:24Z</time>
      </trkpt>
      <trkpt lat="42.803037" lon="0.994256">
        <ele>1575.7</ele>
        <time>2013-04-21T08:04:56Z</time>
      </trkpt>
      <trkpt lat="42.802978" lon="0.994318">
        <ele>1581.5</ele>
        <time>2013-04-21T08:05:26Z</time>
      </trkpt>
      <trkpt lat="42.802936" lon="0.994401">
        <ele>1584.9</ele>
        <time>2013-04-21T08:05:51Z</time>
      </trkpt>
      <trkpt lat="42.802882" lon="0.994473">
        <ele>1587.3</ele>
        <time>2013-04-21T08:06:11Z</time>
      </trkpt>
      <trkpt lat="42.802787" lon="0.994472">
        <ele>1589.2</ele>
        <time>2013-04-21T08:06:28Z</time>
      </trkpt>
      <trkpt lat="42.802772" lon="0.994544">
        <ele>1592.6</ele>
        <time>2013-04-21T08:06:51Z</time>
        <name>Depart couloir</name>
      </trkpt>
      <trkpt lat="42.802734" lon="0.994643">
        <ele>1596.9</ele>
        <time>2013-04-21T08:07:22Z</time>
      </trkpt>
      <trkpt lat="42.802708" lon="0.994704">
        <ele>1600.2</ele>
        <time>2013-04-21T08:07:44Z</time>
      </trkpt>
      <trkpt lat="42.802617" lon="0.994777">
        <ele>1603.6</ele>
        <time>2013-04-21T08:08:13Z</time>
      </trkpt>
      <trkpt lat="42.802621" lon="0.994881">
        <ele>1607.9</ele>
        <time>2013-04-21T08:08:45Z</time>
      </trkpt>
      <trkpt lat="42.802597" lon="0.994972">
        <ele>1612.3</ele>
        <time>2013-04-21T08:09:13Z</time>
      </trkpt>
      <trkpt lat="42.802556" lon="0.995039">
        <ele>1616.6</ele>
        <time>2013-04-21T08:09:46Z</time>
      </trkpt>
      <trkpt lat="42.802523" lon="0.995124">
        <ele>1619.5</ele>
        <time>2013-04-21T08:10:15Z</time>
      </trkpt>
      <trkpt lat="42.802501" lon="0.995196">
        <ele>1622.8</ele>
        <time>2013-04-21T08:10:42Z</time>
      </trkpt>
      <trkpt lat="42.802425" lon="0.995255">
        <ele>1626.7</ele>
        <time>2013-04-21T08:11:16Z</time>
      </trkpt>
      <trkpt lat="42.802415" lon="0.995357">
        <ele>1630.1</ele>
        <time>2013-04-21T08:11:42Z</time>
      </trkpt>
      <trkpt lat="42.802391" lon="0.995455">
        <ele>1633.9</ele>
        <time>2013-04-21T08:12:10Z</time>
      </trkpt>
      <trkpt lat="42.802349" lon="0.995559">
        <ele>1638.2</ele>
        <time>2013-04-21T08:12:42Z</time>
      </trkpt>
      <trkpt lat="42.802324" lon="0.995652">
        <ele>1643.5</ele>
        <time>2013-04-21T08:13:15Z</time>
      </trkpt>
      <trkpt lat="42.802128" lon="0.995717">
        <ele>1652.2</ele>
        <time>2013-04-21T08:18:44Z</time>
      </trkpt>
      <trkpt lat="42.802047" lon="0.995678">
        <ele>1654.6</ele>
        <time>2013-04-21T08:19:51Z</time>
      </trkpt>
      <trkpt lat="42.802001" lon="0.995739">
        <ele>1657.9</ele>
        <time>2013-04-21T08:20:15Z</time>
      </trkpt>
      <trkpt lat="42.801951" lon="0.995796">
        <ele>1661.8</ele>
        <time>2013-04-21T08:20:39Z</time>
      </trkpt>
      <trkpt lat="42.801892" lon="0.995836">
        <ele>1665.6</ele>
        <time>2013-04-21T08:21:02Z</time>
      </trkpt>
      <trkpt lat="42.801861" lon="0.995848">
        <ele>1670.9</ele>
        <time>2013-04-21T08:21:53Z</time>
      </trkpt>
      <trkpt lat="42.801837" lon="0.995894">
        <ele>1674.8</ele>
        <time>2013-04-21T08:22:14Z</time>
      </trkpt>
      <trkpt lat="42.801807" lon="0.995958">
        <ele>1679.6</ele>
        <time>2013-04-21T08:22:57Z</time>
      </trkpt>
      <trkpt lat="42.801764" lon="0.996117">
        <ele>1683.9</ele>
        <time>2013-04-21T08:23:27Z</time>
      </trkpt>
      <trkpt lat="42.801736" lon="0.996256">
        <ele>1690.6</ele>
        <time>2013-04-21T08:24:08Z</time>
      </trkpt>
      <trkpt lat="42.801696" lon="0.996301">
        <ele>1696.9</ele>
        <time>2013-04-21T08:24:49Z</time>
      </trkpt>
      <trkpt lat="42.801642" lon="0.996301">
        <ele>1701.7</ele>
        <time>2013-04-21T08:25:27Z</time>
      </trkpt>
      <trkpt lat="42.801610" lon="0.996351">
        <ele>1706.5</ele>
        <time>2013-04-21T08:25:58Z</time>
      </trkpt>
      <trkpt lat="42.801670" lon="0.996802">
        <ele>1712.2</ele>
        <time>2013-04-21T08:26:32Z</time>
      </trkpt>
      <trkpt lat="42.801640" lon="0.996943">
        <ele>1717.5</ele>
        <time>2013-04-21T08:27:09Z</time>
      </trkpt>
      <trkpt lat="42.801637" lon="0.997078">
        <ele>1723.3</ele>
        <time>2013-04-21T08:27:55Z</time>
      </trkpt>
      <trkpt lat="42.801593" lon="0.997189">
        <ele>1728.6</ele>
        <time>2013-04-21T08:28:34Z</time>
      </trkpt>
      <trkpt lat="42.801586" lon="0.997270">
        <ele>1733.9</ele>
        <time>2013-04-21T08:29:13Z</time>
      </trkpt>
      <trkpt lat="42.801559" lon="0.997367">
        <ele>1738.7</ele>
        <time>2013-04-21T08:29:58Z</time>
      </trkpt>
      <trkpt lat="42.801541" lon="0.997456">
        <ele>1742.5</ele>
        <time>2013-04-21T08:30:29Z</time>
      </trkpt>
      <trkpt lat="42.801543" lon="0.997594">
        <ele>1747.8</ele>
        <time>2013-04-21T08:31:04Z</time>
      </trkpt>
      <trkpt lat="42.801530" lon="0.997678">
        <ele>1750.7</ele>
        <time>2013-04-21T08:31:27Z</time>
      </trkpt>
      <trkpt lat="42.801494" lon="0.997816">
        <ele>1756.0</ele>
        <time>2013-04-21T08:33:15Z</time>
      </trkpt>
      <trkpt lat="42.801537" lon="0.997922">
        <ele>1763.2</ele>
        <time>2013-04-21T08:34:15Z</time>
      </trkpt>
      <trkpt lat="42.801500" lon="0.998077">
        <ele>1771.4</ele>
        <time>2013-04-21T08:35:23Z</time>
      </trkpt>
      <trkpt lat="42.801507" lon="0.998183">
        <ele>1777.1</ele>
        <time>2013-04-21T08:36:10Z</time>
      </trkpt>
      <trkpt lat="42.801505" lon="0.998408">
        <ele>1784.8</ele>
        <time>2013-04-21T08:37:05Z</time>
      </trkpt>
      <trkpt lat="42.801520" lon="0.998531">
        <ele>1791.1</ele>
        <time>2013-04-21T08:37:48Z</time>
      </trkpt>
      <trkpt lat="42.801515" lon="0.998601">
        <ele>1796.8</ele>
        <time>2013-04-21T08:38:36Z</time>
      </trkpt>
      <trkpt lat="42.801517" lon="0.998710">
        <ele>1800.7</ele>
        <time>2013-04-21T08:39:48Z</time>
      </trkpt>
      <trkpt lat="42.801474" lon="0.998808">
        <ele>1805.5</ele>
        <time>2013-04-21T08:40:14Z</time>
      </trkpt>
      <trkpt lat="42.801491" lon="0.998926">
        <ele>1812.7</ele>
        <time>2013-04-21T08:41:00Z</time>
      </trkpt>
      <trkpt lat="42.801543" lon="0.999104">
        <ele>1822.3</ele>
        <time>2013-04-21T08:41:45Z</time>
      </trkpt>
      <trkpt lat="42.801509" lon="0.999201">
        <ele>1830.5</ele>
        <time>2013-04-21T08:42:37Z</time>
      </trkpt>
      <trkpt lat="42.801445" lon="0.999327">
        <ele>1838.2</ele>
        <time>2013-04-21T08:43:12Z</time>
      </trkpt>
      <trkpt lat="42.801418" lon="0.999500">
        <ele>1848.3</ele>
        <time>2013-04-21T08:44:02Z</time>
      </trkpt>
      <trkpt lat="42.801439" lon="0.999681">
        <ele>1858.4</ele>
        <time>2013-04-21T08:45:04Z</time>
      </trkpt>
      <trkpt lat="42.801472" lon="0.999911">
        <ele>1859.3</ele>
        <time>2013-04-21T08:50:16Z</time>
      </trkpt>
      <trkpt lat="42.801469" lon="0.999860">
        <ele>1859.3</ele>
        <time>2013-04-21T09:02:02Z</time>
      </trkpt>
      <trkpt lat="42.801458" lon="0.999980">
        <ele>1865.1</ele>
        <time>2013-04-21T09:02:33Z</time>
      </trkpt>
      <trkpt lat="42.801456" lon="1.000159">
        <ele>1873.3</ele>
        <time>2013-04-21T09:03:17Z</time>
      </trkpt>
      <trkpt lat="42.801456" lon="1.000185">
        <ele>1879.5</ele>
        <time>2013-04-21T09:03:53Z</time>
      </trkpt>
      <trkpt lat="42.801443" lon="1.000337">
        <ele>1886.7</ele>
        <time>2013-04-21T09:04:38Z</time>
      </trkpt>
      <trkpt lat="42.801534" lon="1.000548">
        <ele>1900.2</ele>
        <time>2013-04-21T09:05:46Z</time>
      </trkpt>
      <trkpt lat="42.801578" lon="1.000653">
        <ele>1907.9</ele>
        <time>2013-04-21T09:06:31Z</time>
      </trkpt>
      <trkpt lat="42.801547" lon="1.000762">
        <ele>1914.1</ele>
        <time>2013-04-21T09:07:11Z</time>
      </trkpt>
      <trkpt lat="42.801535" lon="1.000960">
        <ele>1920.4</ele>
        <time>2013-04-21T09:07:53Z</time>
      </trkpt>
      <trkpt lat="42.801550" lon="1.001114">
        <ele>1925.7</ele>
        <time>2013-04-21T09:09:14Z</time>
      </trkpt>
      <trkpt lat="42.801548" lon="1.001189">
        <ele>1932.4</ele>
        <time>2013-04-21T09:09:37Z</time>
      </trkpt>
      <trkpt lat="42.801542" lon="1.001286">
        <ele>1937.7</ele>
        <time>2013-04-21T09:09:59Z</time>
      </trkpt>
      <trkpt lat="42.801526" lon="1.001406">
        <ele>1944.4</ele>
        <time>2013-04-21T09:10:33Z</time>
      </trkpt>
      <trkpt lat="42.801513" lon="1.001487">
        <ele>1949.7</ele>
        <time>2013-04-21T09:11:02Z</time>
      </trkpt>
      <trkpt lat="42.801511" lon="1.001622">
        <ele>1955.9</ele>
        <time>2013-04-21T09:11:30Z</time>
      </trkpt>
      <trkpt lat="42.801517" lon="1.001728">
        <ele>1960.8</ele>
        <time>2013-04-21T09:11:52Z</time>
      </trkpt>
      <trkpt lat="42.801496" lon="1.001800">
        <ele>1965.6</ele>
        <time>2013-04-21T09:12:18Z</time>
      </trkpt>
      <trkpt lat="42.801498" lon="1.001881">
        <ele>1970.8</ele>
        <time>2013-04-21T09:12:46Z</time>
      </trkpt>
      <trkpt lat="42.801518" lon="1.001991">
        <ele>1975.7</ele>
        <time>2013-04-21T09:13:11Z</time>
      </trkpt>
      <trkpt lat="42.801532" lon="1.002137">
        <ele>1983.3</ele>
        <time>2013-04-21T09:14:06Z</time>
      </trkpt>
      <trkpt lat="42.801544" lon="1.002224">
        <ele>1988.6</ele>
        <time>2013-04-21T09:14:37Z</time>
      </trkpt>
      <trkpt lat="42.801544" lon="1.002341">
        <ele>1993.4</ele>
        <time>2013-04-21T09:15:06Z</time>
      </trkpt>
      <trkpt lat="42.801530" lon="1.002425">
        <ele>2000.2</ele>
        <time>2013-04-21T09:15:45Z</time>
      </trkpt>
      <trkpt lat="42.801532" lon="1.002536">
        <ele>2005.0</ele>
        <time>2013-04-21T09:16:18Z</time>
      </trkpt>
      <trkpt lat="42.801557" lon="1.002659">
        <ele>2011.7</ele>
        <time>2013-04-21T09:16:54Z</time>
      </trkpt>
      <trkpt lat="42.801572" lon="1.002738">
        <ele>2019.4</ele>
        <time>2013-04-21T09:35:53Z</time>
      </trkpt>
      <trkpt lat="42.801585" lon="1.002846">
        <ele>2024.7</ele>
        <time>2013-04-21T09:36:31Z</time>
      </trkpt>
      <trkpt lat="42.801599" lon="1.002957">
        <ele>2030.0</ele>
        <time>2013-04-21T09:37:04Z</time>
      </trkpt>
      <trkpt lat="42.801588" lon="1.003038">
        <ele>2037.7</ele>
        <time>2013-04-21T09:38:00Z</time>
      </trkpt>
      <trkpt lat="42.801595" lon="1.003167">
        <ele>2045.8</ele>
        <time>2013-04-21T09:38:52Z</time>
      </trkpt>
      <trkpt lat="42.801620" lon="1.003303">
        <ele>2052.6</ele>
        <time>2013-04-21T09:39:36Z</time>
      </trkpt>
      <trkpt lat="42.801632" lon="1.003380">
        <ele>2057.8</ele>
        <time>2013-04-21T09:40:46Z</time>
      </trkpt>
      <trkpt lat="42.801638" lon="1.003525">
        <ele>2065.5</ele>
        <time>2013-04-21T09:41:42Z</time>
      </trkpt>
      <trkpt lat="42.801616" lon="1.003638">
        <ele>2071.8</ele>
        <time>2013-04-21T09:42:23Z</time>
      </trkpt>
      <trkpt lat="42.801635" lon="1.003746">
        <ele>2079.0</ele>
        <time>2013-04-21T09:43:01Z</time>
      </trkpt>
      <trkpt lat="42.801603" lon="1.003777">
        <ele>2084.3</ele>
        <time>2013-04-21T09:44:24Z</time>
      </trkpt>
      <trkpt lat="42.801588" lon="1.003904">
        <ele>2091.5</ele>
        <time>2013-04-21T09:44:56Z</time>
      </trkpt>
      <trkpt lat="42.801582" lon="1.003993">
        <ele>2096.8</ele>
        <time>2013-04-21T09:45:18Z</time>
      </trkpt>
      <trkpt lat="42.801575" lon="1.004111">
        <ele>2103.5</ele>
        <time>2013-04-21T09:46:07Z</time>
      </trkpt>
      <trkpt lat="42.801578" lon="1.004219">
        <ele>2108.3</ele>
        <time>2013-04-21T09:46:40Z</time>
      </trkpt>
      <trkpt lat="42.801549" lon="1.004336">
        <ele>2115.0</ele>
        <time>2013-04-21T09:47:15Z</time>
      </trkpt>
      <trkpt lat="42.801536" lon="1.004424">
        <ele>2119.8</ele>
        <time>2013-04-21T09:47:45Z</time>
      </trkpt>
      <trkpt lat="42.801521" lon="1.004530">
        <ele>2125.6</ele>
        <time>2013-04-21T09:48:22Z</time>
      </trkpt>
      <trkpt lat="42.801520" lon="1.004600">
        <ele>2129.9</ele>
        <time>2013-04-21T09:49:16Z</time>
      </trkpt>
      <trkpt lat="42.801495" lon="1.004712">
        <ele>2135.7</ele>
        <time>2013-04-21T09:49:52Z</time>
      </trkpt>
      <trkpt lat="42.801473" lon="1.004834">
        <ele>2141.9</ele>
        <time>2013-04-21T09:50:40Z</time>
      </trkpt>
      <trkpt lat="42.801467" lon="1.004957">
        <ele>2148.2</ele>
        <time>2013-04-21T09:51:10Z</time>
      </trkpt>
      <trkpt lat="42.801506" lon="1.005043">
        <ele>2158.8</ele>
        <time>2013-04-21T10:11:47Z</time>
      </trkpt>
      <trkpt lat="42.801524" lon="1.005119">
        <ele>2164.6</ele>
        <time>2013-04-21T10:12:30Z</time>
      </trkpt>
      <trkpt lat="42.801488" lon="1.005177">
        <ele>2168.4</ele>
        <time>2013-04-21T10:13:05Z</time>
      </trkpt>
      <trkpt lat="42.801500" lon="1.005253">
        <ele>2173.2</ele>
        <time>2013-04-21T10:13:39Z</time>
      </trkpt>
      <trkpt lat="42.801472" lon="1.005359">
        <ele>2178.5</ele>
        <time>2013-04-21T10:14:22Z</time>
      </trkpt>
      <trkpt lat="42.801426" lon="1.005471">
        <ele>2182.8</ele>
        <time>2013-04-21T10:14:58Z</time>
      </trkpt>
      <trkpt lat="42.801433" lon="1.005540">
        <ele>2187.6</ele>
        <time>2013-04-21T10:15:46Z</time>
      </trkpt>
      <trkpt lat="42.801429" lon="1.005622">
        <ele>2192.4</ele>
        <time>2013-04-21T10:16:26Z</time>
      </trkpt>
      <trkpt lat="42.801375" lon="1.005736">
        <ele>2197.2</ele>
        <time>2013-04-21T10:17:17Z</time>
      </trkpt>
      <trkpt lat="42.801355" lon="1.005779">
        <ele>2202.5</ele>
        <time>2013-04-21T10:17:59Z</time>
      </trkpt>
      <trkpt lat="42.801391" lon="1.005879">
        <ele>2208.8</ele>
        <time>2013-04-21T10:19:01Z</time>
      </trkpt>
      <trkpt lat="42.801371" lon="1.005959">
        <ele>2213.1</ele>
        <time>2013-04-21T10:19:41Z</time>
      </trkpt>
      <trkpt lat="42.801394" lon="1.006053">
        <ele>2218.4</ele>
        <time>2013-04-21T10:20:28Z</time>
      </trkpt>
      <trkpt lat="42.801404" lon="1.006156">
        <ele>2225.1</ele>
        <time>2013-04-21T10:21:10Z</time>
      </trkpt>
      <trkpt lat="42.801401" lon="1.006245">
        <ele>2229.9</ele>
        <time>2013-04-21T10:21:47Z</time>
      </trkpt>
      <trkpt lat="42.801373" lon="1.006342">
        <ele>2236.6</ele>
        <time>2013-04-21T10:22:35Z</time>
      </trkpt>
      <trkpt lat="42.801374" lon="1.006429">
        <ele>2243.4</ele>
        <time>2013-04-21T10:23:25Z</time>
      </trkpt>
      <trkpt lat="42.801329" lon="1.006479">
        <ele>2247.7</ele>
        <time>2013-04-21T10:24:08Z</time>
      </trkpt>
      <trkpt lat="42.801363" lon="1.006589">
        <ele>2254.4</ele>
        <time>2013-04-21T10:24:49Z</time>
      </trkpt>
      <trkpt lat="42.801322" lon="1.006642">
        <ele>2258.8</ele>
        <time>2013-04-21T10:25:28Z</time>
      </trkpt>
      <trkpt lat="42.801342" lon="1.006761">
        <ele>2266.0</ele>
        <time>2013-04-21T10:26:24Z</time>
      </trkpt>
      <trkpt lat="42.801340" lon="1.006841">
        <ele>2269.8</ele>
        <time>2013-04-21T10:26:54Z</time>
      </trkpt>
      <trkpt lat="42.801354" lon="1.006916">
        <ele>2273.7</ele>
        <time>2013-04-21T10:27:23Z</time>
      </trkpt>
      <trkpt lat="42.801290" lon="1.006986">
        <ele>2279.4</ele>
        <time>2013-04-21T10:28:06Z</time>
      </trkpt>
      <trkpt lat="42.801284" lon="1.007073">
        <ele>2283.3</ele>
        <time>2013-04-21T10:28:36Z</time>
      </trkpt>
      <trkpt lat="42.801226" lon="1.007134">
        <ele>2289.0</ele>
        <time>2013-04-21T10:29:24Z</time>
      </trkpt>
      <trkpt lat="42.801265" lon="1.007196">
        <ele>2292.4</ele>
        <time>2013-04-21T10:29:54Z</time>
      </trkpt>
      <trkpt lat="42.801222" lon="1.007277">
        <ele>2297.2</ele>
        <time>2013-04-21T10:30:33Z</time>
      </trkpt>
      <trkpt lat="42.801257" lon="1.007352">
        <ele>2300.6</ele>
        <time>2013-04-21T10:31:04Z</time>
      </trkpt>
      <trkpt lat="42.801207" lon="1.007420">
        <ele>2305.9</ele>
        <time>2013-04-21T10:31:40Z</time>
      </trkpt>
      <trkpt lat="42.801216" lon="1.007508">
        <ele>2311.1</ele>
        <time>2013-04-21T10:32:16Z</time>
      </trkpt>
      <trkpt lat="42.801223" lon="1.007573">
        <ele>2316.9</ele>
        <time>2013-04-21T10:33:08Z</time>
      </trkpt>
      <trkpt lat="42.801190" lon="1.007646">
        <ele>2323.6</ele>
        <time>2013-04-21T10:33:58Z</time>
      </trkpt>
      <trkpt lat="42.801167" lon="1.007738">
        <ele>2328.9</ele>
        <time>2013-04-21T10:34:37Z</time>
      </trkpt>
      <trkpt lat="42.801161" lon="1.007863">
        <ele>2335.2</ele>
        <time>2013-04-21T10:35:34Z</time>
      </trkpt>
      <trkpt lat="42.801172" lon="1.007971">
        <ele>2343.4</ele>
        <time>2013-04-21T10:36:55Z</time>
      </trkpt>
      <trkpt lat="42.801181" lon="1.008080">
        <ele>2350.1</ele>
        <time>2013-04-21T10:37:48Z</time>
      </trkpt>
      <trkpt lat="42.801143" lon="1.008165">
        <ele>2355.4</ele>
        <time>2013-04-21T10:38:31Z</time>
      </trkpt>
      <trkpt lat="42.801132" lon="1.008272">
        <ele>2361.6</ele>
        <time>2013-04-21T10:39:07Z</time>
      </trkpt>
      <trkpt lat="42.801127" lon="1.008396">
        <ele>2364.5</ele>
        <time>2013-04-21T10:39:23Z</time>
        <name>Port de Cornave</name>
      </trkpt>
      <trkpt lat="42.801145" lon="1.008456">
        <ele>2363.1</ele>
        <time>2013-04-21T10:45:46Z</time>
      </trkpt>
      <trkpt lat="42.801184" lon="1.008434">
        <ele>2377.5</ele>
        <time>2013-04-21T11:00:22Z</time>
      </trkpt>
      <trkpt lat="42.801253" lon="1.008434">
        <ele>2377.5</ele>
        <time>2013-04-21T11:00:46Z</time>
      </trkpt>
      <trkpt lat="42.801307" lon="1.008416">
        <ele>2375.1</ele>
        <time>2013-04-21T11:07:35Z</time>
      </trkpt>
      <trkpt lat="42.801354" lon="1.008460">
        <ele>2366.9</ele>
        <time>2013-04-21T11:37:22Z</time>
      </trkpt>
      <trkpt lat="42.801437" lon="1.008457">
        <ele>2372.2</ele>
        <time>2013-04-21T11:39:26Z</time>
      </trkpt>
      <trkpt lat="42.801488" lon="1.008506">
        <ele>2377.0</ele>
        <time>2013-04-21T11:39:52Z</time>
      </trkpt>
      <trkpt lat="42.801575" lon="1.008448">
        <ele>2381.8</ele>
        <time>2013-04-21T11:40:19Z</time>
      </trkpt>
      <trkpt lat="42.801635" lon="1.008543">
        <ele>2386.6</ele>
        <time>2013-04-21T11:40:47Z</time>
      </trkpt>
      <trkpt lat="42.801695" lon="1.008501">
        <ele>2390.5</ele>
        <time>2013-04-21T11:41:35Z</time>
      </trkpt>
      <trkpt lat="42.801772" lon="1.008529">
        <ele>2394.8</ele>
        <time>2013-04-21T11:42:00Z</time>
      </trkpt>
      <trkpt lat="42.801855" lon="1.008472">
        <ele>2399.1</ele>
        <time>2013-04-21T11:42:37Z</time>
      </trkpt>
      <trkpt lat="42.801956" lon="1.008449">
        <ele>2403.4</ele>
        <time>2013-04-21T11:43:15Z</time>
      </trkpt>
      <trkpt lat="42.802043" lon="1.008437">
        <ele>2406.8</ele>
        <time>2013-04-21T11:43:45Z</time>
      </trkpt>
      <trkpt lat="42.802122" lon="1.008421">
        <ele>2410.2</ele>
        <time>2013-04-21T11:44:06Z</time>
      </trkpt>
      <trkpt lat="42.802209" lon="1.008361">
        <ele>2413.5</ele>
        <time>2013-04-21T11:44:40Z</time>
      </trkpt>
      <trkpt lat="42.802272" lon="1.008287">
        <ele>2415.0</ele>
        <time>2013-04-21T11:45:21Z</time>
      </trkpt>
      <trkpt lat="42.802368" lon="1.008207">
        <ele>2414.5</ele>
        <time>2013-04-21T11:54:36Z</time>
      </trkpt>
      <trkpt lat="42.802438" lon="1.008055">
        <ele>2416.9</ele>
        <time>2013-04-21T11:56:03Z</time>
      </trkpt>
      <trkpt lat="42.802541" lon="1.008023">
        <ele>2413.1</ele>
        <time>2013-04-21T11:57:32Z</time>
      </trkpt>
      <trkpt lat="42.802628" lon="1.007983">
        <ele>2412.6</ele>
        <time>2013-04-21T11:58:20Z</time>
      </trkpt>
      <trkpt lat="42.802709" lon="1.007925">
        <ele>2411.6</ele>
        <time>2013-04-21T11:59:03Z</time>
      </trkpt>
      <trkpt lat="42.802781" lon="1.007912">
        <ele>2411.6</ele>
        <time>2013-04-21T12:04:03Z</time>
      </trkpt>
      <trkpt lat="42.802892" lon="1.007825">
        <ele>2410.6</ele>
        <time>2013-04-21T12:05:14Z</time>
      </trkpt>
      <trkpt lat="42.802964" lon="1.007780">
        <ele>2412.1</ele>
        <time>2013-04-21T12:06:00Z</time>
      </trkpt>
      <trkpt lat="42.803065" lon="1.007745">
        <ele>2412.1</ele>
        <time>2013-04-21T12:07:08Z</time>
      </trkpt>
      <trkpt lat="42.803176" lon="1.007703">
        <ele>2416.4</ele>
        <time>2013-04-21T12:08:12Z</time>
      </trkpt>
      <trkpt lat="42.803250" lon="1.007610">
        <ele>2420.7</ele>
        <time>2013-04-21T12:09:15Z</time>
      </trkpt>
      <trkpt lat="42.803347" lon="1.007583">
        <ele>2423.1</ele>
        <time>2013-04-21T12:10:37Z</time>
      </trkpt>
      <trkpt lat="42.803428" lon="1.007586">
        <ele>2423.6</ele>
        <time>2013-04-21T12:11:49Z</time>
      </trkpt>
      <trkpt lat="42.803499" lon="1.007579">
        <ele>2424.1</ele>
        <time>2013-04-21T12:15:10Z</time>
      </trkpt>
      <trkpt lat="42.803554" lon="1.007518">
        <ele>2426.0</ele>
        <time>2013-04-21T12:16:41Z</time>
      </trkpt>
      <trkpt lat="42.803652" lon="1.007459">
        <ele>2429.9</ele>
        <time>2013-04-21T12:17:28Z</time>
      </trkpt>
      <trkpt lat="42.803725" lon="1.007430">
        <ele>2430.8</ele>
        <time>2013-04-21T12:17:49Z</time>
      </trkpt>
      <trkpt lat="42.803793" lon="1.007432">
        <ele>2429.9</ele>
        <time>2013-04-21T12:19:26Z</time>
      </trkpt>
      <trkpt lat="42.803883" lon="1.007425">
        <ele>2426.5</ele>
        <time>2013-04-21T12:20:04Z</time>
      </trkpt>
      <trkpt lat="42.803958" lon="1.007402">
        <ele>2423.1</ele>
        <time>2013-04-21T12:20:35Z</time>
      </trkpt>
      <trkpt lat="42.804043" lon="1.007389">
        <ele>2423.1</ele>
        <time>2013-04-21T12:21:02Z</time>
      </trkpt>
      <trkpt lat="42.804124" lon="1.007356">
        <ele>2422.7</ele>
        <time>2013-04-21T12:21:45Z</time>
      </trkpt>
      <trkpt lat="42.804207" lon="1.007353">
        <ele>2420.7</ele>
        <time>2013-04-21T12:22:26Z</time>
      </trkpt>
      <trkpt lat="42.804267" lon="1.007338">
        <ele>2415.4</ele>
        <time>2013-04-21T12:23:52Z</time>
      </trkpt>
      <trkpt lat="42.804332" lon="1.007284">
        <ele>2412.1</ele>
        <time>2013-04-21T12:24:09Z</time>
      </trkpt>
      <trkpt lat="42.804441" lon="1.007270">
        <ele>2414.5</ele>
        <time>2013-04-21T12:24:43Z</time>
      </trkpt>
      <trkpt lat="42.804514" lon="1.007218">
        <ele>2414.5</ele>
        <time>2013-04-21T12:25:00Z</time>
      </trkpt>
      <trkpt lat="42.804609" lon="1.007174">
        <ele>2415.9</ele>
        <time>2013-04-21T12:25:16Z</time>
      </trkpt>
      <trkpt lat="42.804681" lon="1.007109">
        <ele>2416.9</ele>
        <time>2013-04-21T12:25:31Z</time>
      </trkpt>
      <trkpt lat="42.804741" lon="1.007063">
        <ele>2416.9</ele>
        <time>2013-04-21T12:26:17Z</time>
      </trkpt>
      <trkpt lat="42.804836" lon="1.007022">
        <ele>2415.4</ele>
        <time>2013-04-21T12:27:29Z</time>
      </trkpt>
      <trkpt lat="42.804926" lon="1.007035">
        <ele>2415.9</ele>
        <time>2013-04-21T12:27:47Z</time>
      </trkpt>
      <trkpt lat="42.805007" lon="1.007047">
        <ele>2417.4</ele>
        <time>2013-04-21T12:28:03Z</time>
      </trkpt>
      <trkpt lat="42.805081" lon="1.007062">
        <ele>2420.3</ele>
        <time>2013-04-21T12:28:17Z</time>
      </trkpt>
      <trkpt lat="42.805151" lon="1.007078">
        <ele>2423.1</ele>
        <time>2013-04-21T12:28:37Z</time>
      </trkpt>
      <trkpt lat="42.805224" lon="1.007128">
        <ele>2424.1</ele>
        <time>2013-04-21T12:31:41Z</time>
      </trkpt>
      <trkpt lat="42.805335" lon="1.007145">
        <ele>2423.6</ele>
        <time>2013-04-21T12:32:13Z</time>
      </trkpt>
      <trkpt lat="42.805422" lon="1.007178">
        <ele>2422.2</ele>
        <time>2013-04-21T12:32:55Z</time>
      </trkpt>
      <trkpt lat="42.805505" lon="1.007216">
        <ele>2421.7</ele>
        <time>2013-04-21T12:33:18Z</time>
      </trkpt>
      <trkpt lat="42.805591" lon="1.007241">
        <ele>2421.2</ele>
        <time>2013-04-21T12:33:42Z</time>
      </trkpt>
      <trkpt lat="42.805693" lon="1.007270">
        <ele>2425.5</ele>
        <time>2013-04-21T12:34:20Z</time>
      </trkpt>
      <trkpt lat="42.805816" lon="1.007249">
        <ele>2429.4</ele>
        <time>2013-04-21T12:34:55Z</time>
      </trkpt>
      <trkpt lat="42.805902" lon="1.007221">
        <ele>2431.8</ele>
        <time>2013-04-21T12:35:10Z</time>
      </trkpt>
      <trkpt lat="42.805935" lon="1.007175">
        <ele>2431.8</ele>
        <time>2013-04-21T12:36:02Z</time>
        <name>Tuc de Pourtillou</name>
      </trkpt>
      <trkpt lat="42.806001" lon="1.007124">
        <ele>2430.4</ele>
        <time>2013-04-21T12:38:49Z</time>
      </trkpt>
      <trkpt lat="42.806105" lon="1.007103">
        <ele>2426.0</ele>
        <time>2013-04-21T12:39:18Z</time>
      </trkpt>
      <trkpt lat="42.806185" lon="1.007039">
        <ele>2423.1</ele>
        <time>2013-04-21T12:39:41Z</time>
      </trkpt>
      <trkpt lat="42.806261" lon="1.006973">
        <ele>2422.7</ele>
        <time>2013-04-21T12:40:03Z</time>
      </trkpt>
      <trkpt lat="42.806338" lon="1.006878">
        <ele>2420.7</ele>
        <time>2013-04-21T12:40:36Z</time>
      </trkpt>
      <trkpt lat="42.806426" lon="1.006837">
        <ele>2417.4</ele>
        <time>2013-04-21T12:41:09Z</time>
      </trkpt>
      <trkpt lat="42.806523" lon="1.006817">
        <ele>2417.4</ele>
        <time>2013-04-21T12:41:31Z</time>
      </trkpt>
      <trkpt lat="42.806609" lon="1.006767">
        <ele>2415.4</ele>
        <time>2013-04-21T12:41:45Z</time>
      </trkpt>
      <trkpt lat="42.806696" lon="1.006742">
        <ele>2418.8</ele>
        <time>2013-04-21T12:42:02Z</time>
      </trkpt>
      <trkpt lat="42.806789" lon="1.006705">
        <ele>2419.3</ele>
        <time>2013-04-21T12:42:59Z</time>
      </trkpt>
      <trkpt lat="42.806873" lon="1.006751">
        <ele>2417.4</ele>
        <time>2013-04-21T12:43:58Z</time>
      </trkpt>
      <trkpt lat="42.806937" lon="1.006817">
        <ele>2415.4</ele>
        <time>2013-04-21T12:44:23Z</time>
      </trkpt>
      <trkpt lat="42.806997" lon="1.006889">
        <ele>2414.0</ele>
        <time>2013-04-21T12:44:45Z</time>
      </trkpt>
      <trkpt lat="42.807077" lon="1.006958">
        <ele>2415.9</ele>
        <time>2013-04-21T12:45:00Z</time>
      </trkpt>
      <trkpt lat="42.807167" lon="1.006967">
        <ele>2415.9</ele>
        <time>2013-04-21T12:45:13Z</time>
      </trkpt>
      <trkpt lat="42.807241" lon="1.006913">
        <ele>2413.5</ele>
        <time>2013-04-21T12:46:03Z</time>
      </trkpt>
      <trkpt lat="42.807293" lon="1.006885">
        <ele>2410.2</ele>
        <time>2013-04-21T12:46:30Z</time>
      </trkpt>
      <trkpt lat="42.807389" lon="1.006947">
        <ele>2405.4</ele>
        <time>2013-04-21T12:46:53Z</time>
      </trkpt>
      <trkpt lat="42.807474" lon="1.006986">
        <ele>2402.9</ele>
        <time>2013-04-21T12:47:04Z</time>
      </trkpt>
      <trkpt lat="42.807553" lon="1.007044">
        <ele>2399.6</ele>
        <time>2013-04-21T12:47:20Z</time>
      </trkpt>
      <trkpt lat="42.807642" lon="1.007043">
        <ele>2396.2</ele>
        <time>2013-04-21T12:47:55Z</time>
      </trkpt>
      <trkpt lat="42.807704" lon="1.007049">
        <ele>2393.3</ele>
        <time>2013-04-21T12:48:57Z</time>
      </trkpt>
      <trkpt lat="42.807760" lon="1.007029">
        <ele>2388.5</ele>
        <time>2013-04-21T12:49:33Z</time>
      </trkpt>
      <trkpt lat="42.807812" lon="1.006981">
        <ele>2381.8</ele>
        <time>2013-04-21T12:49:58Z</time>
      </trkpt>
      <trkpt lat="42.807859" lon="1.006900">
        <ele>2377.5</ele>
        <time>2013-04-21T12:50:17Z</time>
      </trkpt>
      <trkpt lat="42.807905" lon="1.006793">
        <ele>2372.7</ele>
        <time>2013-04-21T12:50:43Z</time>
      </trkpt>
      <trkpt lat="42.807985" lon="1.006807">
        <ele>2366.4</ele>
        <time>2013-04-21T12:51:07Z</time>
      </trkpt>
      <trkpt lat="42.808041" lon="1.006666">
        <ele>2360.6</ele>
        <time>2013-04-21T12:51:32Z</time>
      </trkpt>
      <trkpt lat="42.808063" lon="1.006592">
        <ele>2356.8</ele>
        <time>2013-04-21T12:52:04Z</time>
      </trkpt>
      <trkpt lat="42.808122" lon="1.006594">
        <ele>2353.9</ele>
        <time>2013-04-21T12:54:08Z</time>
      </trkpt>
      <trkpt lat="42.808174" lon="1.006519">
        <ele>2349.1</ele>
        <time>2013-04-21T12:54:30Z</time>
      </trkpt>
      <trkpt lat="42.808236" lon="1.006471">
        <ele>2343.4</ele>
        <time>2013-04-21T12:54:51Z</time>
      </trkpt>
      <trkpt lat="42.808303" lon="1.006445">
        <ele>2338.5</ele>
        <time>2013-04-21T12:55:23Z</time>
      </trkpt>
      <trkpt lat="42.808305" lon="1.006321">
        <ele>2335.7</ele>
        <time>2013-04-21T12:55:36Z</time>
      </trkpt>
      <trkpt lat="42.808369" lon="1.006252">
        <ele>2329.4</ele>
        <time>2013-04-21T12:55:50Z</time>
      </trkpt>
      <trkpt lat="42.808454" lon="1.006210">
        <ele>2322.7</ele>
        <time>2013-04-21T12:56:10Z</time>
      </trkpt>
      <trkpt lat="42.808513" lon="1.006148">
        <ele>2316.9</ele>
        <time>2013-04-21T12:56:45Z</time>
      </trkpt>
      <trkpt lat="42.808575" lon="1.006032">
        <ele>2310.2</ele>
        <time>2013-04-21T12:57:04Z</time>
      </trkpt>
      <trkpt lat="42.808603" lon="1.005975">
        <ele>2307.3</ele>
        <time>2013-04-21T13:00:10Z</time>
      </trkpt>
      <trkpt lat="42.808602" lon="1.005971">
        <ele>2305.9</ele>
        <time>2013-04-21T13:05:20Z</time>
      </trkpt>
      <trkpt lat="42.808643" lon="1.005862">
        <ele>2301.5</ele>
        <time>2013-04-21T13:11:06Z</time>
      </trkpt>
      <trkpt lat="42.808717" lon="1.005858">
        <ele>2297.2</ele>
        <time>2013-04-21T13:11:26Z</time>
      </trkpt>
      <trkpt lat="42.808756" lon="1.005762">
        <ele>2292.4</ele>
        <time>2013-04-21T13:11:42Z</time>
      </trkpt>
      <trkpt lat="42.808828" lon="1.005756">
        <ele>2287.6</ele>
        <time>2013-04-21T13:12:07Z</time>
      </trkpt>
      <trkpt lat="42.808913" lon="1.005729">
        <ele>2282.3</ele>
        <time>2013-04-21T13:12:20Z</time>
      </trkpt>
      <trkpt lat="42.808999" lon="1.005764">
        <ele>2277.5</ele>
        <time>2013-04-21T13:12:38Z</time>
      </trkpt>
      <trkpt lat="42.809068" lon="1.005795">
        <ele>2273.7</ele>
        <time>2013-04-21T13:13:00Z</time>
      </trkpt>
      <trkpt lat="42.809153" lon="1.005746">
        <ele>2268.9</ele>
        <time>2013-04-21T13:13:16Z</time>
      </trkpt>
      <trkpt lat="42.809217" lon="1.005659">
        <ele>2264.5</ele>
        <time>2013-04-21T13:13:31Z</time>
      </trkpt>
      <trkpt lat="42.809303" lon="1.005608">
        <ele>2260.2</ele>
        <time>2013-04-21T13:13:50Z</time>
      </trkpt>
      <trkpt lat="42.809389" lon="1.005561">
        <ele>2254.9</ele>
        <time>2013-04-21T13:14:06Z</time>
      </trkpt>
      <trkpt lat="42.809478" lon="1.005559">
        <ele>2251.1</ele>
        <time>2013-04-21T13:14:21Z</time>
      </trkpt>
      <trkpt lat="42.809552" lon="1.005583">
        <ele>2247.2</ele>
        <time>2013-04-21T13:14:32Z</time>
      </trkpt>
      <trkpt lat="42.809634" lon="1.005603">
        <ele>2241.4</ele>
        <time>2013-04-21T13:14:46Z</time>
      </trkpt>
      <trkpt lat="42.809734" lon="1.005618">
        <ele>2237.1</ele>
        <time>2013-04-21T13:14:58Z</time>
      </trkpt>
      <trkpt lat="42.809822" lon="1.005657">
        <ele>2232.3</ele>
        <time>2013-04-21T13:15:10Z</time>
      </trkpt>
      <trkpt lat="42.809905" lon="1.005686">
        <ele>2227.5</ele>
        <time>2013-04-21T13:15:21Z</time>
      </trkpt>
      <trkpt lat="42.809998" lon="1.005721">
        <ele>2223.2</ele>
        <time>2013-04-21T13:15:34Z</time>
      </trkpt>
      <trkpt lat="42.810089" lon="1.005760">
        <ele>2217.4</ele>
        <time>2013-04-21T13:15:48Z</time>
      </trkpt>
      <trkpt lat="42.810176" lon="1.005775">
        <ele>2211.6</ele>
        <time>2013-04-21T13:16:00Z</time>
      </trkpt>
      <trkpt lat="42.810263" lon="1.005808">
        <ele>2206.4</ele>
        <time>2013-04-21T13:16:13Z</time>
      </trkpt>
      <trkpt lat="42.810317" lon="1.005792">
        <ele>2205.4</ele>
        <time>2013-04-21T13:24:29Z</time>
      </trkpt>
      <trkpt lat="42.810414" lon="1.005836">
        <ele>2202.0</ele>
        <time>2013-04-21T13:24:52Z</time>
      </trkpt>
      <trkpt lat="42.810502" lon="1.005871">
        <ele>2198.7</ele>
        <time>2013-04-21T13:25:02Z</time>
      </trkpt>
      <trkpt lat="42.810598" lon="1.005884">
        <ele>2195.8</ele>
        <time>2013-04-21T13:25:11Z</time>
      </trkpt>
      <trkpt lat="42.810689" lon="1.005921">
        <ele>2192.9</ele>
        <time>2013-04-21T13:25:20Z</time>
      </trkpt>
      <trkpt lat="42.810771" lon="1.005957">
        <ele>2188.6</ele>
        <time>2013-04-21T13:25:29Z</time>
      </trkpt>
      <trkpt lat="42.810859" lon="1.005980">
        <ele>2187.1</ele>
        <time>2013-04-21T13:25:39Z</time>
      </trkpt>
      <trkpt lat="42.810947" lon="1.006014">
        <ele>2184.7</ele>
        <time>2013-04-21T13:25:48Z</time>
      </trkpt>
      <trkpt lat="42.811042" lon="1.006029">
        <ele>2182.3</ele>
        <time>2013-04-21T13:25:57Z</time>
      </trkpt>
      <trkpt lat="42.811134" lon="1.006051">
        <ele>2181.4</ele>
        <time>2013-04-21T13:26:06Z</time>
      </trkpt>
      <trkpt lat="42.811221" lon="1.006060">
        <ele>2180.4</ele>
        <time>2013-04-21T13:26:16Z</time>
      </trkpt>
      <trkpt lat="42.811319" lon="1.006073">
        <ele>2179.4</ele>
        <time>2013-04-21T13:26:25Z</time>
      </trkpt>
      <trkpt lat="42.811405" lon="1.006081">
        <ele>2179.4</ele>
        <time>2013-04-21T13:26:33Z</time>
      </trkpt>
      <trkpt lat="42.811502" lon="1.006095">
        <ele>2179.4</ele>
        <time>2013-04-21T13:26:43Z</time>
      </trkpt>
      <trkpt lat="42.811598" lon="1.006075">
        <ele>2179.9</ele>
        <time>2013-04-21T13:26:52Z</time>
      </trkpt>
      <trkpt lat="42.811698" lon="1.006074">
        <ele>2180.4</ele>
        <time>2013-04-21T13:27:02Z</time>
      </trkpt>
      <trkpt lat="42.811791" lon="1.006066">
        <ele>2181.4</ele>
        <time>2013-04-21T13:27:12Z</time>
      </trkpt>
      <trkpt lat="42.811891" lon="1.006077">
        <ele>2184.2</ele>
        <time>2013-04-21T13:27:25Z</time>
      </trkpt>
      <trkpt lat="42.811979" lon="1.006105">
        <ele>2186.2</ele>
        <time>2013-04-21T13:27:51Z</time>
      </trkpt>
      <trkpt lat="42.812067" lon="1.006133">
        <ele>2189.1</ele>
        <time>2013-04-21T13:28:06Z</time>
      </trkpt>
      <trkpt lat="42.812161" lon="1.006173">
        <ele>2190.5</ele>
        <time>2013-04-21T13:28:21Z</time>
      </trkpt>
      <trkpt lat="42.812204" lon="1.006286">
        <ele>2190.5</ele>
        <time>2013-04-21T13:28:36Z</time>
      </trkpt>
      <trkpt lat="42.812267" lon="1.006377">
        <ele>2185.7</ele>
        <time>2013-04-21T13:28:52Z</time>
      </trkpt>
      <trkpt lat="42.812353" lon="1.006378">
        <ele>2179.9</ele>
        <time>2013-04-21T13:29:22Z</time>
      </trkpt>
      <trkpt lat="42.812445" lon="1.006372">
        <ele>2176.1</ele>
        <time>2013-04-21T13:29:37Z</time>
      </trkpt>
      <trkpt lat="42.812489" lon="1.006390">
        <ele>2176.1</ele>
        <time>2013-04-21T13:30:13Z</time>
      </trkpt>
      <trkpt lat="42.812562" lon="1.006338">
        <ele>2177.5</ele>
        <time>2013-04-21T13:30:26Z</time>
      </trkpt>
      <trkpt lat="42.812649" lon="1.006318">
        <ele>2179.4</ele>
        <time>2013-04-21T13:30:40Z</time>
      </trkpt>
      <trkpt lat="42.812706" lon="1.006387">
        <ele>2174.2</ele>
        <time>2013-04-21T13:31:21Z</time>
      </trkpt>
      <trkpt lat="42.812761" lon="1.006405">
        <ele>2169.4</ele>
        <time>2013-04-21T13:31:49Z</time>
      </trkpt>
      <trkpt lat="42.812859" lon="1.006381">
        <ele>2165.0</ele>
        <time>2013-04-21T13:32:09Z</time>
      </trkpt>
      <trkpt lat="42.812958" lon="1.006383">
        <ele>2159.7</ele>
        <time>2013-04-21T13:32:28Z</time>
      </trkpt>
      <trkpt lat="42.813046" lon="1.006408">
        <ele>2157.3</ele>
        <time>2013-04-21T13:32:44Z</time>
      </trkpt>
      <trkpt lat="42.813137" lon="1.006429">
        <ele>2151.6</ele>
        <time>2013-04-21T13:33:07Z</time>
      </trkpt>
      <trkpt lat="42.813241" lon="1.006417">
        <ele>2149.6</ele>
        <time>2013-04-21T13:33:29Z</time>
      </trkpt>
      <trkpt lat="42.813328" lon="1.006418">
        <ele>2146.3</ele>
        <time>2013-04-21T13:33:47Z</time>
      </trkpt>
      <trkpt lat="42.813422" lon="1.006384">
        <ele>2143.9</ele>
        <time>2013-04-21T13:34:02Z</time>
      </trkpt>
      <trkpt lat="42.813490" lon="1.006379">
        <ele>2144.8</ele>
        <time>2013-04-21T13:36:40Z</time>
      </trkpt>
      <trkpt lat="42.813588" lon="1.006393">
        <ele>2142.4</ele>
        <time>2013-04-21T13:37:24Z</time>
      </trkpt>
      <trkpt lat="42.813665" lon="1.006354">
        <ele>2139.6</ele>
        <time>2013-04-21T13:37:38Z</time>
      </trkpt>
      <trkpt lat="42.813712" lon="1.006275">
        <ele>2134.3</ele>
        <time>2013-04-21T13:37:57Z</time>
      </trkpt>
      <trkpt lat="42.813818" lon="1.006236">
        <ele>2129.5</ele>
        <time>2013-04-21T13:38:14Z</time>
      </trkpt>
      <trkpt lat="42.813916" lon="1.006228">
        <ele>2127.5</ele>
        <time>2013-04-21T13:38:25Z</time>
      </trkpt>
      <trkpt lat="42.814005" lon="1.006206">
        <ele>2123.7</ele>
        <time>2013-04-21T13:38:40Z</time>
      </trkpt>
      <trkpt lat="42.814092" lon="1.006181">
        <ele>2121.3</ele>
        <time>2013-04-21T13:38:52Z</time>
      </trkpt>
      <trkpt lat="42.814180" lon="1.006159">
        <ele>2118.4</ele>
        <time>2013-04-21T13:39:05Z</time>
      </trkpt>
      <trkpt lat="42.814265" lon="1.006113">
        <ele>2116.0</ele>
        <time>2013-04-21T13:39:19Z</time>
      </trkpt>
      <trkpt lat="42.814361" lon="1.006116">
        <ele>2114.1</ele>
        <time>2013-04-21T13:39:33Z</time>
      </trkpt>
      <trkpt lat="42.814450" lon="1.006116">
        <ele>2109.8</ele>
        <time>2013-04-21T13:39:42Z</time>
      </trkpt>
      <trkpt lat="42.814544" lon="1.006119">
        <ele>2104.9</ele>
        <time>2013-04-21T13:39:53Z</time>
      </trkpt>
      <trkpt lat="42.814638" lon="1.006117">
        <ele>2100.6</ele>
        <time>2013-04-21T13:40:05Z</time>
      </trkpt>
      <trkpt lat="42.814731" lon="1.006129">
        <ele>2097.7</ele>
        <time>2013-04-21T13:40:18Z</time>
      </trkpt>
      <trkpt lat="42.814815" lon="1.006099">
        <ele>2095.3</ele>
        <time>2013-04-21T13:40:30Z</time>
      </trkpt>
      <trkpt lat="42.814909" lon="1.006076">
        <ele>2092.9</ele>
        <time>2013-04-21T13:40:42Z</time>
      </trkpt>
      <trkpt lat="42.814987" lon="1.006008">
        <ele>2090.0</ele>
        <time>2013-04-21T13:40:55Z</time>
      </trkpt>
      <trkpt lat="42.815047" lon="1.005932">
        <ele>2086.7</ele>
        <time>2013-04-21T13:41:10Z</time>
      </trkpt>
      <trkpt lat="42.815026" lon="1.005834">
        <ele>2079.5</ele>
        <time>2013-04-21T13:41:54Z</time>
      </trkpt>
      <trkpt lat="42.815066" lon="1.005756">
        <ele>2074.7</ele>
        <time>2013-04-21T13:42:24Z</time>
      </trkpt>
      <trkpt lat="42.815156" lon="1.005769">
        <ele>2074.2</ele>
        <time>2013-04-21T13:42:35Z</time>
      </trkpt>
      <trkpt lat="42.815226" lon="1.005761">
        <ele>2072.3</ele>
        <time>2013-04-21T13:42:46Z</time>
      </trkpt>
      <trkpt lat="42.815300" lon="1.005714">
        <ele>2075.6</ele>
        <time>2013-04-21T13:43:02Z</time>
      </trkpt>
      <trkpt lat="42.815383" lon="1.005719">
        <ele>2079.0</ele>
        <time>2013-04-21T13:43:27Z</time>
      </trkpt>
      <trkpt lat="42.815427" lon="1.005643">
        <ele>2083.8</ele>
        <time>2013-04-21T13:44:01Z</time>
      </trkpt>
      <trkpt lat="42.815474" lon="1.005552">
        <ele>2089.1</ele>
        <time>2013-04-21T13:44:26Z</time>
      </trkpt>
      <trkpt lat="42.815565" lon="1.005553">
        <ele>2090.0</ele>
        <time>2013-04-21T13:44:50Z</time>
      </trkpt>
      <trkpt lat="42.815615" lon="1.005528">
        <ele>2090.5</ele>
        <time>2013-04-21T13:45:45Z</time>
      </trkpt>
      <trkpt lat="42.815706" lon="1.005487">
        <ele>2088.1</ele>
        <time>2013-04-21T13:47:58Z</time>
      </trkpt>
      <trkpt lat="42.815736" lon="1.005416">
        <ele>2085.2</ele>
        <time>2013-04-21T13:48:21Z</time>
      </trkpt>
      <trkpt lat="42.815833" lon="1.005439">
        <ele>2081.9</ele>
        <time>2013-04-21T13:48:35Z</time>
      </trkpt>
      <trkpt lat="42.815915" lon="1.005385">
        <ele>2079.9</ele>
        <time>2013-04-21T13:48:46Z</time>
      </trkpt>
      <trkpt lat="42.816003" lon="1.005321">
        <ele>2079.0</ele>
        <time>2013-04-21T13:49:01Z</time>
      </trkpt>
      <trkpt lat="42.816065" lon="1.005288">
        <ele>2079.0</ele>
        <time>2013-04-21T13:49:43Z</time>
      </trkpt>
      <trkpt lat="42.816142" lon="1.005231">
        <ele>2077.6</ele>
        <time>2013-04-21T13:50:23Z</time>
      </trkpt>
      <trkpt lat="42.816227" lon="1.005183">
        <ele>2074.2</ele>
        <time>2013-04-21T13:50:34Z</time>
      </trkpt>
      <trkpt lat="42.816327" lon="1.005176">
        <ele>2074.2</ele>
        <time>2013-04-21T13:50:51Z</time>
      </trkpt>
      <trkpt lat="42.816412" lon="1.005123">
        <ele>2066.5</ele>
        <time>2013-04-21T13:51:10Z</time>
      </trkpt>
      <trkpt lat="42.816511" lon="1.005164">
        <ele>2064.6</ele>
        <time>2013-04-21T13:51:24Z</time>
      </trkpt>
      <trkpt lat="42.816579" lon="1.005154">
        <ele>2060.2</ele>
        <time>2013-04-21T13:52:33Z</time>
      </trkpt>
      <trkpt lat="42.816677" lon="1.005169">
        <ele>2057.4</ele>
        <time>2013-04-21T13:52:48Z</time>
      </trkpt>
      <trkpt lat="42.816757" lon="1.005182">
        <ele>2056.4</ele>
        <time>2013-04-21T13:53:01Z</time>
      </trkpt>
      <trkpt lat="42.816781" lon="1.005201">
        <ele>2055.0</ele>
        <time>2013-04-21T13:53:53Z</time>
      </trkpt>
      <trkpt lat="42.816884" lon="1.005236">
        <ele>2050.6</ele>
        <time>2013-04-21T13:54:12Z</time>
      </trkpt>
      <trkpt lat="42.816965" lon="1.005227">
        <ele>2049.7</ele>
        <time>2013-04-21T13:54:24Z</time>
      </trkpt>
      <trkpt lat="42.817054" lon="1.005242">
        <ele>2050.1</ele>
        <time>2013-04-21T13:54:35Z</time>
      </trkpt>
      <trkpt lat="42.817143" lon="1.005276">
        <ele>2051.1</ele>
        <time>2013-04-21T13:54:49Z</time>
      </trkpt>
      <trkpt lat="42.817244" lon="1.005293">
        <ele>2049.2</ele>
        <time>2013-04-21T13:55:45Z</time>
      </trkpt>
      <trkpt lat="42.817329" lon="1.005331">
        <ele>2047.8</ele>
        <time>2013-04-21T13:55:59Z</time>
      </trkpt>
      <trkpt lat="42.817410" lon="1.005328">
        <ele>2045.8</ele>
        <time>2013-04-21T13:56:11Z</time>
      </trkpt>
      <trkpt lat="42.817502" lon="1.005313">
        <ele>2046.8</ele>
        <time>2013-04-21T13:56:24Z</time>
      </trkpt>
      <trkpt lat="42.817527" lon="1.005314">
        <ele>2048.7</ele>
        <time>2013-04-21T13:59:05Z</time>
      </trkpt>
      <trkpt lat="42.817598" lon="1.005324">
        <ele>2048.2</ele>
        <time>2013-04-21T14:00:36Z</time>
      </trkpt>
      <trkpt lat="42.817689" lon="1.005307">
        <ele>2044.4</ele>
        <time>2013-04-21T14:00:47Z</time>
      </trkpt>
      <trkpt lat="42.817790" lon="1.005306">
        <ele>2042.5</ele>
        <time>2013-04-21T14:00:57Z</time>
      </trkpt>
      <trkpt lat="42.817887" lon="1.005315">
        <ele>2044.4</ele>
        <time>2013-04-21T14:01:08Z</time>
      </trkpt>
      <trkpt lat="42.817979" lon="1.005332">
        <ele>2041.0</ele>
        <time>2013-04-21T14:01:31Z</time>
      </trkpt>
      <trkpt lat="42.818051" lon="1.005306">
        <ele>2040.1</ele>
        <time>2013-04-21T14:02:00Z</time>
      </trkpt>
      <trkpt lat="42.818131" lon="1.005291">
        <ele>2036.7</ele>
        <time>2013-04-21T14:02:24Z</time>
      </trkpt>
      <trkpt lat="42.818153" lon="1.005245">
        <ele>2034.8</ele>
        <time>2013-04-21T14:03:05Z</time>
      </trkpt>
      <trkpt lat="42.818217" lon="1.005160">
        <ele>2031.9</ele>
        <time>2013-04-21T14:03:34Z</time>
      </trkpt>
      <trkpt lat="42.818325" lon="1.005200">
        <ele>2030.9</ele>
        <time>2013-04-21T14:04:00Z</time>
      </trkpt>
      <trkpt lat="42.818397" lon="1.005230">
        <ele>2028.5</ele>
        <time>2013-04-21T14:04:26Z</time>
      </trkpt>
      <trkpt lat="42.818486" lon="1.005207">
        <ele>2026.6</ele>
        <time>2013-04-21T14:04:40Z</time>
      </trkpt>
      <trkpt lat="42.818589" lon="1.005257">
        <ele>2027.1</ele>
        <time>2013-04-21T14:05:23Z</time>
      </trkpt>
      <trkpt lat="42.818674" lon="1.005256">
        <ele>2027.6</ele>
        <time>2013-04-21T14:05:38Z</time>
      </trkpt>
      <trkpt lat="42.818703" lon="1.005350">
        <ele>2028.0</ele>
        <time>2013-04-21T14:06:27Z</time>
      </trkpt>
      <trkpt lat="42.818791" lon="1.005397">
        <ele>2023.2</ele>
        <time>2013-04-21T14:06:40Z</time>
      </trkpt>
      <trkpt lat="42.818865" lon="1.005478">
        <ele>2019.9</ele>
        <time>2013-04-21T14:06:55Z</time>
      </trkpt>
      <trkpt lat="42.818904" lon="1.005525">
        <ele>2017.0</ele>
        <time>2013-04-21T14:10:26Z</time>
      </trkpt>
      <trkpt lat="42.819022" lon="1.005569">
        <ele>2013.1</ele>
        <time>2013-04-21T14:11:03Z</time>
      </trkpt>
      <trkpt lat="42.819106" lon="1.005646">
        <ele>2012.2</ele>
        <time>2013-04-21T14:11:42Z</time>
      </trkpt>
      <trkpt lat="42.819190" lon="1.005722">
        <ele>2013.1</ele>
        <time>2013-04-21T14:12:03Z</time>
      </trkpt>
      <trkpt lat="42.819274" lon="1.005800">
        <ele>2011.7</ele>
        <time>2013-04-21T14:12:32Z</time>
      </trkpt>
      <trkpt lat="42.819338" lon="1.005859">
        <ele>2012.7</ele>
        <time>2013-04-21T14:12:51Z</time>
      </trkpt>
      <trkpt lat="42.819421" lon="1.005908">
        <ele>2012.7</ele>
        <time>2013-04-21T14:13:11Z</time>
      </trkpt>
      <trkpt lat="42.819498" lon="1.005956">
        <ele>2013.6</ele>
        <time>2013-04-21T14:13:24Z</time>
      </trkpt>
      <trkpt lat="42.819576" lon="1.006018">
        <ele>2015.5</ele>
        <time>2013-04-21T14:14:17Z</time>
      </trkpt>
      <trkpt lat="42.819661" lon="1.006083">
        <ele>2018.4</ele>
        <time>2013-04-21T14:14:42Z</time>
      </trkpt>
      <trkpt lat="42.819737" lon="1.006124">
        <ele>2021.8</ele>
        <time>2013-04-21T14:15:01Z</time>
      </trkpt>
      <trkpt lat="42.819818" lon="1.006161">
        <ele>2025.2</ele>
        <time>2013-04-21T14:15:23Z</time>
      </trkpt>
      <trkpt lat="42.819891" lon="1.006224">
        <ele>2027.6</ele>
        <time>2013-04-21T14:15:39Z</time>
      </trkpt>
      <trkpt lat="42.819939" lon="1.006307">
        <ele>2028.0</ele>
        <time>2013-04-21T14:15:58Z</time>
      </trkpt>
      <trkpt lat="42.819963" lon="1.006367">
        <ele>2029.0</ele>
        <time>2013-04-21T14:19:13Z</time>
      </trkpt>
      <trkpt lat="42.820010" lon="1.006488">
        <ele>2030.9</ele>
        <time>2013-04-21T14:19:30Z</time>
      </trkpt>
      <trkpt lat="42.820028" lon="1.006614">
        <ele>2030.4</ele>
        <time>2013-04-21T14:19:42Z</time>
        <name>Cap de Raspe</name>
      </trkpt>
      <trkpt lat="42.820064" lon="1.006728">
        <ele>2026.1</ele>
        <time>2013-04-21T14:20:01Z</time>
      </trkpt>
      <trkpt lat="42.820093" lon="1.006777">
        <ele>2022.8</ele>
        <time>2013-04-21T14:20:28Z</time>
      </trkpt>
      <trkpt lat="42.820175" lon="1.006822">
        <ele>2018.9</ele>
        <time>2013-04-21T14:20:45Z</time>
      </trkpt>
      <trkpt lat="42.820263" lon="1.006890">
        <ele>2018.9</ele>
        <time>2013-04-21T14:20:55Z</time>
      </trkpt>
      <trkpt lat="42.820331" lon="1.006965">
        <ele>2020.8</ele>
        <time>2013-04-21T14:21:08Z</time>
      </trkpt>
      <trkpt lat="42.820372" lon="1.007003">
        <ele>2021.3</ele>
        <time>2013-04-21T14:24:15Z</time>
      </trkpt>
      <trkpt lat="42.820436" lon="1.007074">
        <ele>2017.9</ele>
        <time>2013-04-21T14:24:24Z</time>
      </trkpt>
      <trkpt lat="42.820506" lon="1.007138">
        <ele>2013.6</ele>
        <time>2013-04-21T14:24:36Z</time>
      </trkpt>
      <trkpt lat="42.820589" lon="1.007185">
        <ele>2008.3</ele>
        <time>2013-04-21T14:24:47Z</time>
      </trkpt>
      <trkpt lat="42.820673" lon="1.007238">
        <ele>2002.1</ele>
        <time>2013-04-21T14:24:59Z</time>
      </trkpt>
      <trkpt lat="42.820753" lon="1.007299">
        <ele>1997.8</ele>
        <time>2013-04-21T14:25:10Z</time>
      </trkpt>
      <trkpt lat="42.820841" lon="1.007333">
        <ele>1992.0</ele>
        <time>2013-04-21T14:25:21Z</time>
      </trkpt>
      <trkpt lat="42.820927" lon="1.007356">
        <ele>1988.1</ele>
        <time>2013-04-21T14:25:30Z</time>
      </trkpt>
      <trkpt lat="42.821020" lon="1.007383">
        <ele>1985.3</ele>
        <time>2013-04-21T14:25:41Z</time>
      </trkpt>
      <trkpt lat="42.821105" lon="1.007406">
        <ele>1982.4</ele>
        <time>2013-04-21T14:25:51Z</time>
      </trkpt>
      <trkpt lat="42.821193" lon="1.007433">
        <ele>1978.1</ele>
        <time>2013-04-21T14:26:24Z</time>
      </trkpt>
      <trkpt lat="42.821280" lon="1.007438">
        <ele>1973.7</ele>
        <time>2013-04-21T14:26:33Z</time>
      </trkpt>
      <trkpt lat="42.821374" lon="1.007412">
        <ele>1970.4</ele>
        <time>2013-04-21T14:26:43Z</time>
      </trkpt>
      <trkpt lat="42.821471" lon="1.007439">
        <ele>1968.9</ele>
        <time>2013-04-21T14:26:52Z</time>
      </trkpt>
      <trkpt lat="42.821550" lon="1.007516">
        <ele>1965.1</ele>
        <time>2013-04-21T14:27:01Z</time>
      </trkpt>
      <trkpt lat="42.821635" lon="1.007540">
        <ele>1960.8</ele>
        <time>2013-04-21T14:27:09Z</time>
      </trkpt>
      <trkpt lat="42.821731" lon="1.007520">
        <ele>1957.4</ele>
        <time>2013-04-21T14:27:17Z</time>
      </trkpt>
      <trkpt lat="42.821820" lon="1.007494">
        <ele>1954.0</ele>
        <time>2013-04-21T14:27:25Z</time>
      </trkpt>
      <trkpt lat="42.821910" lon="1.007474">
        <ele>1950.2</ele>
        <time>2013-04-21T14:27:34Z</time>
      </trkpt>
      <trkpt lat="42.822015" lon="1.007451">
        <ele>1947.3</ele>
        <time>2013-04-21T14:27:43Z</time>
      </trkpt>
      <trkpt lat="42.822107" lon="1.007442">
        <ele>1945.4</ele>
        <time>2013-04-21T14:27:52Z</time>
      </trkpt>
      <trkpt lat="42.822203" lon="1.007448">
        <ele>1942.0</ele>
        <time>2013-04-21T14:28:01Z</time>
      </trkpt>
      <trkpt lat="42.822299" lon="1.007439">
        <ele>1937.7</ele>
        <time>2013-04-21T14:28:10Z</time>
      </trkpt>
      <trkpt lat="42.822380" lon="1.007411">
        <ele>1934.3</ele>
        <time>2013-04-21T14:28:19Z</time>
      </trkpt>
      <trkpt lat="42.822462" lon="1.007378">
        <ele>1931.9</ele>
        <time>2013-04-21T14:28:28Z</time>
      </trkpt>
      <trkpt lat="42.822549" lon="1.007329">
        <ele>1929.0</ele>
        <time>2013-04-21T14:28:38Z</time>
      </trkpt>
      <trkpt lat="42.822637" lon="1.007304">
        <ele>1924.2</ele>
        <time>2013-04-21T14:28:49Z</time>
      </trkpt>
      <trkpt lat="42.822732" lon="1.007316">
        <ele>1919.4</ele>
        <time>2013-04-21T14:29:08Z</time>
      </trkpt>
      <trkpt lat="42.822811" lon="1.007275">
        <ele>1917.0</ele>
        <time>2013-04-21T14:29:23Z</time>
      </trkpt>
      <trkpt lat="42.822907" lon="1.007269">
        <ele>1912.7</ele>
        <time>2013-04-21T14:29:42Z</time>
      </trkpt>
      <trkpt lat="42.822998" lon="1.007289">
        <ele>1909.3</ele>
        <time>2013-04-21T14:29:52Z</time>
      </trkpt>
      <trkpt lat="42.823093" lon="1.007293">
        <ele>1905.5</ele>
        <time>2013-04-21T14:30:06Z</time>
      </trkpt>
      <trkpt lat="42.823171" lon="1.007272">
        <ele>1902.6</ele>
        <time>2013-04-21T14:30:25Z</time>
      </trkpt>
      <trkpt lat="42.823264" lon="1.007246">
        <ele>1899.7</ele>
        <time>2013-04-21T14:30:41Z</time>
      </trkpt>
      <trkpt lat="42.823324" lon="1.007183">
        <ele>1896.3</ele>
        <time>2013-04-21T14:31:20Z</time>
      </trkpt>
      <trkpt lat="42.823410" lon="1.007193">
        <ele>1893.4</ele>
        <time>2013-04-21T14:31:56Z</time>
      </trkpt>
      <trkpt lat="42.823496" lon="1.007145">
        <ele>1891.1</ele>
        <time>2013-04-21T14:32:13Z</time>
      </trkpt>
      <trkpt lat="42.823573" lon="1.007076">
        <ele>1888.7</ele>
        <time>2013-04-21T14:32:28Z</time>
      </trkpt>
      <trkpt lat="42.823590" lon="1.007075">
        <ele>1888.2</ele>
        <time>2013-04-21T14:34:53Z</time>
      </trkpt>
      <trkpt lat="42.823597" lon="1.007077">
        <ele>1889.6</ele>
        <time>2013-04-21T14:47:25Z</time>
      </trkpt>
      <trkpt lat="42.823587" lon="1.007095">
        <ele>1889.1</ele>
        <time>2013-04-21T14:56:01Z</time>
      </trkpt>
      <trkpt lat="42.823619" lon="1.007035">
        <ele>1889.6</ele>
        <time>2013-04-21T14:56:52Z</time>
      </trkpt>
      <trkpt lat="42.823709" lon="1.007005">
        <ele>1889.1</ele>
        <time>2013-04-21T14:57:02Z</time>
      </trkpt>
      <trkpt lat="42.823790" lon="1.006957">
        <ele>1887.7</ele>
        <time>2013-04-21T14:57:12Z</time>
      </trkpt>
      <trkpt lat="42.823877" lon="1.006906">
        <ele>1886.7</ele>
        <time>2013-04-21T14:57:20Z</time>
      </trkpt>
      <trkpt lat="42.823938" lon="1.006818">
        <ele>1885.8</ele>
        <time>2013-04-21T14:57:29Z</time>
      </trkpt>
      <trkpt lat="42.824015" lon="1.006738">
        <ele>1884.8</ele>
        <time>2013-04-21T14:57:38Z</time>
      </trkpt>
      <trkpt lat="42.824101" lon="1.006675">
        <ele>1883.8</ele>
        <time>2013-04-21T14:57:48Z</time>
      </trkpt>
      <trkpt lat="42.824185" lon="1.006619">
        <ele>1883.4</ele>
        <time>2013-04-21T14:57:57Z</time>
      </trkpt>
      <trkpt lat="42.824273" lon="1.006578">
        <ele>1882.9</ele>
        <time>2013-04-21T14:58:07Z</time>
      </trkpt>
      <trkpt lat="42.824365" lon="1.006574">
        <ele>1881.0</ele>
        <time>2013-04-21T14:58:20Z</time>
      </trkpt>
      <trkpt lat="42.824457" lon="1.006573">
        <ele>1879.0</ele>
        <time>2013-04-21T14:58:32Z</time>
      </trkpt>
      <trkpt lat="42.824527" lon="1.006594">
        <ele>1873.8</ele>
        <time>2013-04-21T14:58:52Z</time>
      </trkpt>
      <trkpt lat="42.824622" lon="1.006593">
        <ele>1868.5</ele>
        <time>2013-04-21T14:59:00Z</time>
      </trkpt>
      <trkpt lat="42.824713" lon="1.006558">
        <ele>1865.6</ele>
        <time>2013-04-21T14:59:09Z</time>
      </trkpt>
      <trkpt lat="42.824779" lon="1.006483">
        <ele>1864.1</ele>
        <time>2013-04-21T14:59:18Z</time>
      </trkpt>
      <trkpt lat="42.824855" lon="1.006422">
        <ele>1865.1</ele>
        <time>2013-04-21T14:59:30Z</time>
      </trkpt>
      <trkpt lat="42.824929" lon="1.006354">
        <ele>1865.6</ele>
        <time>2013-04-21T14:59:42Z</time>
      </trkpt>
      <trkpt lat="42.825003" lon="1.006269">
        <ele>1866.5</ele>
        <time>2013-04-21T14:59:53Z</time>
      </trkpt>
      <trkpt lat="42.825092" lon="1.006220">
        <ele>1868.0</ele>
        <time>2013-04-21T15:00:05Z</time>
      </trkpt>
      <trkpt lat="42.825161" lon="1.006139">
        <ele>1870.4</ele>
        <time>2013-04-21T15:00:17Z</time>
      </trkpt>
      <trkpt lat="42.825217" lon="1.006047">
        <ele>1870.9</ele>
        <time>2013-04-21T15:00:27Z</time>
      </trkpt>
      <trkpt lat="42.825289" lon="1.005996">
        <ele>1870.9</ele>
        <time>2013-04-21T15:00:40Z</time>
      </trkpt>
      <trkpt lat="42.825335" lon="1.005919">
        <ele>1869.9</ele>
        <time>2013-04-21T15:01:06Z</time>
      </trkpt>
      <trkpt lat="42.825389" lon="1.005822">
        <ele>1868.9</ele>
        <time>2013-04-21T15:01:18Z</time>
      </trkpt>
      <trkpt lat="42.825417" lon="1.005715">
        <ele>1869.4</ele>
        <time>2013-04-21T15:01:30Z</time>
      </trkpt>
      <trkpt lat="42.825434" lon="1.005582">
        <ele>1867.5</ele>
        <time>2013-04-21T15:01:39Z</time>
      </trkpt>
      <trkpt lat="42.825470" lon="1.005479">
        <ele>1866.1</ele>
        <time>2013-04-21T15:01:49Z</time>
      </trkpt>
      <trkpt lat="42.825563" lon="1.005400">
        <ele>1866.1</ele>
        <time>2013-04-21T15:01:59Z</time>
      </trkpt>
      <trkpt lat="42.825642" lon="1.005333">
        <ele>1865.1</ele>
        <time>2013-04-21T15:02:11Z</time>
      </trkpt>
      <trkpt lat="42.825725" lon="1.005269">
        <ele>1864.1</ele>
        <time>2013-04-21T15:02:20Z</time>
      </trkpt>
      <trkpt lat="42.825805" lon="1.005204">
        <ele>1862.2</ele>
        <time>2013-04-21T15:02:28Z</time>
      </trkpt>
      <trkpt lat="42.825890" lon="1.005128">
        <ele>1861.7</ele>
        <time>2013-04-21T15:02:37Z</time>
      </trkpt>
      <trkpt lat="42.825968" lon="1.005048">
        <ele>1862.2</ele>
        <time>2013-04-21T15:02:46Z</time>
      </trkpt>
      <trkpt lat="42.826044" lon="1.004960">
        <ele>1863.2</ele>
        <time>2013-04-21T15:02:55Z</time>
      </trkpt>
      <trkpt lat="42.826103" lon="1.004864">
        <ele>1863.7</ele>
        <time>2013-04-21T15:03:03Z</time>
      </trkpt>
      <trkpt lat="42.826161" lon="1.004771">
        <ele>1864.1</ele>
        <time>2013-04-21T15:03:13Z</time>
      </trkpt>
      <trkpt lat="42.826230" lon="1.004674">
        <ele>1864.6</ele>
        <time>2013-04-21T15:03:23Z</time>
      </trkpt>
      <trkpt lat="42.826301" lon="1.004588">
        <ele>1864.6</ele>
        <time>2013-04-21T15:03:32Z</time>
      </trkpt>
      <trkpt lat="42.826377" lon="1.004504">
        <ele>1866.5</ele>
        <time>2013-04-21T15:03:41Z</time>
      </trkpt>
      <trkpt lat="42.826446" lon="1.004411">
        <ele>1865.1</ele>
        <time>2013-04-21T15:03:51Z</time>
      </trkpt>
      <trkpt lat="42.826511" lon="1.004305">
        <ele>1864.1</ele>
        <time>2013-04-21T15:04:03Z</time>
      </trkpt>
      <trkpt lat="42.826605" lon="1.004266">
        <ele>1866.1</ele>
        <time>2013-04-21T15:04:15Z</time>
      </trkpt>
      <trkpt lat="42.826690" lon="1.004277">
        <ele>1864.1</ele>
        <time>2013-04-21T15:04:38Z</time>
      </trkpt>
      <trkpt lat="42.826792" lon="1.004272">
        <ele>1860.8</ele>
        <time>2013-04-21T15:04:57Z</time>
      </trkpt>
      <trkpt lat="42.826885" lon="1.004289">
        <ele>1858.4</ele>
        <time>2013-04-21T15:05:10Z</time>
      </trkpt>
      <trkpt lat="42.826983" lon="1.004310">
        <ele>1857.4</ele>
        <time>2013-04-21T15:05:20Z</time>
      </trkpt>
      <trkpt lat="42.827075" lon="1.004299">
        <ele>1856.0</ele>
        <time>2013-04-21T15:05:29Z</time>
      </trkpt>
      <trkpt lat="42.827166" lon="1.004347">
        <ele>1855.5</ele>
        <time>2013-04-21T15:05:39Z</time>
      </trkpt>
      <trkpt lat="42.827254" lon="1.004404">
        <ele>1854.5</ele>
        <time>2013-04-21T15:05:48Z</time>
      </trkpt>
      <trkpt lat="42.827337" lon="1.004427">
        <ele>1852.6</ele>
        <time>2013-04-21T15:06:01Z</time>
      </trkpt>
      <trkpt lat="42.827428" lon="1.004478">
        <ele>1850.2</ele>
        <time>2013-04-21T15:06:11Z</time>
      </trkpt>
      <trkpt lat="42.827523" lon="1.004483">
        <ele>1849.7</ele>
        <time>2013-04-21T15:06:20Z</time>
      </trkpt>
      <trkpt lat="42.827613" lon="1.004435">
        <ele>1849.2</ele>
        <time>2013-04-21T15:06:29Z</time>
      </trkpt>
      <trkpt lat="42.827698" lon="1.004399">
        <ele>1849.2</ele>
        <time>2013-04-21T15:06:37Z</time>
      </trkpt>
      <trkpt lat="42.827757" lon="1.004422">
        <ele>1847.3</ele>
        <time>2013-04-21T15:06:50Z</time>
      </trkpt>
      <trkpt lat="42.827855" lon="1.004455">
        <ele>1843.9</ele>
        <time>2013-04-21T15:07:01Z</time>
      </trkpt>
      <trkpt lat="42.827940" lon="1.004470">
        <ele>1843.0</ele>
        <time>2013-04-21T15:07:09Z</time>
      </trkpt>
      <trkpt lat="42.828021" lon="1.004450">
        <ele>1843.5</ele>
        <time>2013-04-21T15:07:17Z</time>
      </trkpt>
      <trkpt lat="42.828107" lon="1.004476">
        <ele>1841.1</ele>
        <time>2013-04-21T15:07:28Z</time>
      </trkpt>
      <trkpt lat="42.828179" lon="1.004466">
        <ele>1837.7</ele>
        <time>2013-04-21T15:07:38Z</time>
      </trkpt>
      <trkpt lat="42.828277" lon="1.004425">
        <ele>1835.8</ele>
        <time>2013-04-21T15:07:46Z</time>
      </trkpt>
      <trkpt lat="42.828366" lon="1.004372">
        <ele>1832.9</ele>
        <time>2013-04-21T15:07:54Z</time>
      </trkpt>
      <trkpt lat="42.828425" lon="1.004305">
        <ele>1832.4</ele>
        <time>2013-04-21T15:08:02Z</time>
      </trkpt>
      <trkpt lat="42.828511" lon="1.004274">
        <ele>1831.4</ele>
        <time>2013-04-21T15:08:10Z</time>
      </trkpt>
      <trkpt lat="42.828608" lon="1.004278">
        <ele>1830.0</ele>
        <time>2013-04-21T15:08:20Z</time>
      </trkpt>
      <trkpt lat="42.828677" lon="1.004200">
        <ele>1826.6</ele>
        <time>2013-04-21T15:08:29Z</time>
      </trkpt>
      <trkpt lat="42.828669" lon="1.004122">
        <ele>1826.6</ele>
        <time>2013-04-21T15:13:49Z</time>
        <name>Cab. du Clot du Lac</name>
      </trkpt>
      <trkpt lat="42.828709" lon="1.004088">
        <ele>1824.2</ele>
        <time>2013-04-21T15:14:58Z</time>
      </trkpt>
      <trkpt lat="42.828752" lon="1.004012">
        <ele>1821.8</ele>
        <time>2013-04-21T15:15:11Z</time>
      </trkpt>
      <trkpt lat="42.828735" lon="1.003900">
        <ele>1823.3</ele>
        <time>2013-04-21T15:15:22Z</time>
      </trkpt>
      <trkpt lat="42.828769" lon="1.003802">
        <ele>1817.0</ele>
        <time>2013-04-21T15:15:31Z</time>
      </trkpt>
      <trkpt lat="42.828795" lon="1.003667">
        <ele>1813.2</ele>
        <time>2013-04-21T15:15:47Z</time>
      </trkpt>
      <trkpt lat="42.828856" lon="1.003571">
        <ele>1811.7</ele>
        <time>2013-04-21T15:15:59Z</time>
      </trkpt>
      <trkpt lat="42.828905" lon="1.003464">
        <ele>1810.3</ele>
        <time>2013-04-21T15:16:12Z</time>
      </trkpt>
      <trkpt lat="42.828949" lon="1.003355">
        <ele>1808.9</ele>
        <time>2013-04-21T15:16:30Z</time>
      </trkpt>
      <trkpt lat="42.828986" lon="1.003240">
        <ele>1807.4</ele>
        <time>2013-04-21T15:16:47Z</time>
      </trkpt>
      <trkpt lat="42.829031" lon="1.003133">
        <ele>1806.4</ele>
        <time>2013-04-21T15:17:01Z</time>
      </trkpt>
      <trkpt lat="42.829028" lon="1.003023">
        <ele>1802.1</ele>
        <time>2013-04-21T15:17:16Z</time>
      </trkpt>
      <trkpt lat="42.829031" lon="1.002921">
        <ele>1799.2</ele>
        <time>2013-04-21T15:17:49Z</time>
      </trkpt>
      <trkpt lat="42.829085" lon="1.002813">
        <ele>1795.4</ele>
        <time>2013-04-21T15:18:05Z</time>
      </trkpt>
      <trkpt lat="42.829149" lon="1.002716">
        <ele>1793.0</ele>
        <time>2013-04-21T15:18:17Z</time>
      </trkpt>
      <trkpt lat="42.829213" lon="1.002622">
        <ele>1789.2</ele>
        <time>2013-04-21T15:18:26Z</time>
      </trkpt>
      <trkpt lat="42.829282" lon="1.002528">
        <ele>1786.3</ele>
        <time>2013-04-21T15:18:39Z</time>
      </trkpt>
      <trkpt lat="42.829353" lon="1.002427">
        <ele>1783.4</ele>
        <time>2013-04-21T15:18:49Z</time>
      </trkpt>
      <trkpt lat="42.829403" lon="1.002320">
        <ele>1780.0</ele>
        <time>2013-04-21T15:18:59Z</time>
      </trkpt>
      <trkpt lat="42.829464" lon="1.002224">
        <ele>1777.6</ele>
        <time>2013-04-21T15:19:08Z</time>
      </trkpt>
      <trkpt lat="42.829535" lon="1.002118">
        <ele>1775.7</ele>
        <time>2013-04-21T15:19:19Z</time>
      </trkpt>
      <trkpt lat="42.829597" lon="1.002021">
        <ele>1772.8</ele>
        <time>2013-04-21T15:19:28Z</time>
      </trkpt>
      <trkpt lat="42.829660" lon="1.001919">
        <ele>1770.4</ele>
        <time>2013-04-21T15:19:36Z</time>
      </trkpt>
      <trkpt lat="42.829721" lon="1.001824">
        <ele>1767.5</ele>
        <time>2013-04-21T15:19:45Z</time>
      </trkpt>
      <trkpt lat="42.829792" lon="1.001749">
        <ele>1763.7</ele>
        <time>2013-04-21T15:19:58Z</time>
      </trkpt>
      <trkpt lat="42.829808" lon="1.001647">
        <ele>1758.9</ele>
        <time>2013-04-21T15:20:23Z</time>
      </trkpt>
      <trkpt lat="42.829752" lon="1.001600">
        <ele>1756.0</ele>
        <time>2013-04-21T15:20:36Z</time>
      </trkpt>
      <trkpt lat="42.829664" lon="1.001586">
        <ele>1753.1</ele>
        <time>2013-04-21T15:20:47Z</time>
      </trkpt>
      <trkpt lat="42.829576" lon="1.001539">
        <ele>1749.3</ele>
        <time>2013-04-21T15:20:59Z</time>
      </trkpt>
      <trkpt lat="42.829484" lon="1.001493">
        <ele>1744.9</ele>
        <time>2013-04-21T15:21:11Z</time>
      </trkpt>
      <trkpt lat="42.829435" lon="1.001392">
        <ele>1739.2</ele>
        <time>2013-04-21T15:21:26Z</time>
      </trkpt>
      <trkpt lat="42.829419" lon="1.001266">
        <ele>1732.4</ele>
        <time>2013-04-21T15:21:41Z</time>
      </trkpt>
      <trkpt lat="42.829445" lon="1.001146">
        <ele>1727.6</ele>
        <time>2013-04-21T15:21:54Z</time>
      </trkpt>
      <trkpt lat="42.829474" lon="1.001024">
        <ele>1723.8</ele>
        <time>2013-04-21T15:22:06Z</time>
      </trkpt>
      <trkpt lat="42.829512" lon="1.000907">
        <ele>1719.5</ele>
        <time>2013-04-21T15:22:17Z</time>
      </trkpt>
      <trkpt lat="42.829556" lon="1.000787">
        <ele>1715.6</ele>
        <time>2013-04-21T15:22:28Z</time>
      </trkpt>
      <trkpt lat="42.829625" lon="1.000678">
        <ele>1711.8</ele>
        <time>2013-04-21T15:22:39Z</time>
      </trkpt>
      <trkpt lat="42.829659" lon="1.000610">
        <ele>1708.9</ele>
        <time>2013-04-21T15:24:58Z</time>
      </trkpt>
      <trkpt lat="42.829724" lon="1.000525">
        <ele>1706.0</ele>
        <time>2013-04-21T15:25:10Z</time>
      </trkpt>
      <trkpt lat="42.829803" lon="1.000449">
        <ele>1702.6</ele>
        <time>2013-04-21T15:25:22Z</time>
      </trkpt>
      <trkpt lat="42.829821" lon="1.000373">
        <ele>1699.8</ele>
        <time>2013-04-21T15:25:31Z</time>
      </trkpt>
      <trkpt lat="42.829742" lon="1.000309">
        <ele>1696.9</ele>
        <time>2013-04-21T15:25:39Z</time>
      </trkpt>
      <trkpt lat="42.829645" lon="1.000237">
        <ele>1694.0</ele>
        <time>2013-04-21T15:25:47Z</time>
      </trkpt>
      <trkpt lat="42.829561" lon="1.000168">
        <ele>1690.1</ele>
        <time>2013-04-21T15:25:55Z</time>
      </trkpt>
      <trkpt lat="42.829531" lon="1.000063">
        <ele>1687.2</ele>
        <time>2013-04-21T15:26:05Z</time>
      </trkpt>
      <trkpt lat="42.829604" lon="0.999982">
        <ele>1684.4</ele>
        <time>2013-04-21T15:26:13Z</time>
      </trkpt>
      <trkpt lat="42.829676" lon="0.999895">
        <ele>1681.0</ele>
        <time>2013-04-21T15:26:21Z</time>
      </trkpt>
      <trkpt lat="42.829650" lon="0.999798">
        <ele>1678.6</ele>
        <time>2013-04-21T15:26:31Z</time>
      </trkpt>
      <trkpt lat="42.829588" lon="0.999697">
        <ele>1674.3</ele>
        <time>2013-04-21T15:26:42Z</time>
      </trkpt>
      <trkpt lat="42.829533" lon="0.999583">
        <ele>1670.9</ele>
        <time>2013-04-21T15:26:53Z</time>
      </trkpt>
      <trkpt lat="42.829482" lon="0.999474">
        <ele>1668.5</ele>
        <time>2013-04-21T15:27:02Z</time>
      </trkpt>
      <trkpt lat="42.829408" lon="0.999394">
        <ele>1665.1</ele>
        <time>2013-04-21T15:27:12Z</time>
      </trkpt>
      <trkpt lat="42.829320" lon="0.999366">
        <ele>1661.3</ele>
        <time>2013-04-21T15:27:21Z</time>
      </trkpt>
      <trkpt lat="42.829224" lon="0.999348">
        <ele>1657.4</ele>
        <time>2013-04-21T15:27:30Z</time>
      </trkpt>
      <trkpt lat="42.829202" lon="0.999260">
        <ele>1654.1</ele>
        <time>2013-04-21T15:27:42Z</time>
      </trkpt>
      <trkpt lat="42.829233" lon="0.999139">
        <ele>1650.7</ele>
        <time>2013-04-21T15:27:52Z</time>
      </trkpt>
      <trkpt lat="42.829181" lon="0.999060">
        <ele>1647.8</ele>
        <time>2013-04-21T15:28:03Z</time>
      </trkpt>
      <trkpt lat="42.829094" lon="0.999033">
        <ele>1643.5</ele>
        <time>2013-04-21T15:28:14Z</time>
      </trkpt>
      <trkpt lat="42.829005" lon="0.999025">
        <ele>1641.1</ele>
        <time>2013-04-21T15:28:23Z</time>
      </trkpt>
      <trkpt lat="42.828925" lon="0.998982">
        <ele>1636.8</ele>
        <time>2013-04-21T15:28:33Z</time>
      </trkpt>
      <trkpt lat="42.828853" lon="0.998908">
        <ele>1632.9</ele>
        <time>2013-04-21T15:28:43Z</time>
      </trkpt>
      <trkpt lat="42.828769" lon="0.998859">
        <ele>1629.1</ele>
        <time>2013-04-21T15:28:51Z</time>
      </trkpt>
      <trkpt lat="42.828696" lon="0.998801">
        <ele>1625.2</ele>
        <time>2013-04-21T15:29:00Z</time>
      </trkpt>
      <trkpt lat="42.828620" lon="0.998753">
        <ele>1620.9</ele>
        <time>2013-04-21T15:29:08Z</time>
      </trkpt>
      <trkpt lat="42.828675" lon="0.998639">
        <ele>1616.6</ele>
        <time>2013-04-21T15:29:16Z</time>
      </trkpt>
      <trkpt lat="42.828723" lon="0.998527">
        <ele>1613.2</ele>
        <time>2013-04-21T15:29:24Z</time>
      </trkpt>
      <trkpt lat="42.828783" lon="0.998442">
        <ele>1608.9</ele>
        <time>2013-04-21T15:29:31Z</time>
      </trkpt>
      <trkpt lat="42.828831" lon="0.998331">
        <ele>1605.5</ele>
        <time>2013-04-21T15:29:38Z</time>
      </trkpt>
      <trkpt lat="42.828873" lon="0.998206">
        <ele>1600.7</ele>
        <time>2013-04-21T15:29:47Z</time>
      </trkpt>
      <trkpt lat="42.828895" lon="0.998097">
        <ele>1596.4</ele>
        <time>2013-04-21T15:29:56Z</time>
      </trkpt>
      <trkpt lat="42.828963" lon="0.998004">
        <ele>1593.5</ele>
        <time>2013-04-21T15:30:03Z</time>
      </trkpt>
      <trkpt lat="42.829022" lon="0.997894">
        <ele>1591.1</ele>
        <time>2013-04-21T15:30:10Z</time>
      </trkpt>
      <trkpt lat="42.829090" lon="0.997819">
        <ele>1589.2</ele>
        <time>2013-04-21T15:30:17Z</time>
      </trkpt>
      <trkpt lat="42.829160" lon="0.997731">
        <ele>1586.8</ele>
        <time>2013-04-21T15:30:25Z</time>
      </trkpt>
      <trkpt lat="42.829209" lon="0.997612">
        <ele>1582.5</ele>
        <time>2013-04-21T15:30:33Z</time>
      </trkpt>
      <trkpt lat="42.829265" lon="0.997513">
        <ele>1578.6</ele>
        <time>2013-04-21T15:30:40Z</time>
      </trkpt>
      <trkpt lat="42.829324" lon="0.997399">
        <ele>1574.8</ele>
        <time>2013-04-21T15:30:48Z</time>
      </trkpt>
      <trkpt lat="42.829383" lon="0.997295">
        <ele>1570.9</ele>
        <time>2013-04-21T15:30:55Z</time>
      </trkpt>
      <trkpt lat="42.829431" lon="0.997183">
        <ele>1567.6</ele>
        <time>2013-04-21T15:31:02Z</time>
      </trkpt>
      <trkpt lat="42.829494" lon="0.997084">
        <ele>1564.2</ele>
        <time>2013-04-21T15:31:09Z</time>
      </trkpt>
      <trkpt lat="42.829559" lon="0.996988">
        <ele>1559.9</ele>
        <time>2013-04-21T15:31:17Z</time>
      </trkpt>
      <trkpt lat="42.829574" lon="0.996856">
        <ele>1555.6</ele>
        <time>2013-04-21T15:31:25Z</time>
      </trkpt>
      <trkpt lat="42.829614" lon="0.996741">
        <ele>1551.7</ele>
        <time>2013-04-21T15:31:33Z</time>
      </trkpt>
      <trkpt lat="42.829669" lon="0.996618">
        <ele>1547.9</ele>
        <time>2013-04-21T15:31:41Z</time>
      </trkpt>
      <trkpt lat="42.829707" lon="0.996506">
        <ele>1544.5</ele>
        <time>2013-04-21T15:31:49Z</time>
      </trkpt>
      <trkpt lat="42.829747" lon="0.996372">
        <ele>1540.2</ele>
        <time>2013-04-21T15:31:58Z</time>
      </trkpt>
      <trkpt lat="42.829759" lon="0.996243">
        <ele>1535.8</ele>
        <time>2013-04-21T15:32:06Z</time>
      </trkpt>
      <trkpt lat="42.829726" lon="0.996138">
        <ele>1532.5</ele>
        <time>2013-04-21T15:32:16Z</time>
      </trkpt>
      <trkpt lat="42.829712" lon="0.996024">
        <ele>1529.1</ele>
        <time>2013-04-21T15:32:25Z</time>
      </trkpt>
      <trkpt lat="42.829720" lon="0.995983">
        <ele>1529.1</ele>
        <time>2013-04-21T15:41:53Z</time>
        <name>Cab. de Besset</name>
      </trkpt>
      <trkpt lat="42.829726" lon="0.995921">
        <ele>1526.7</ele>
        <time>2013-04-21T15:42:55Z</time>
      </trkpt>
      <trkpt lat="42.829803" lon="0.995864">
        <ele>1526.2</ele>
        <time>2013-04-21T15:43:17Z</time>
      </trkpt>
      <trkpt lat="42.829843" lon="0.995769">
        <ele>1523.8</ele>
        <time>2013-04-21T15:43:26Z</time>
      </trkpt>
      <trkpt lat="42.829920" lon="0.995698">
        <ele>1522.4</ele>
        <time>2013-04-21T15:43:36Z</time>
      </trkpt>
      <trkpt lat="42.829980" lon="0.995607">
        <ele>1519.5</ele>
        <time>2013-04-21T15:43:46Z</time>
      </trkpt>
      <trkpt lat="42.830069" lon="0.995548">
        <ele>1516.1</ele>
        <time>2013-04-21T15:43:56Z</time>
      </trkpt>
      <trkpt lat="42.830153" lon="0.995484">
        <ele>1513.2</ele>
        <time>2013-04-21T15:44:07Z</time>
      </trkpt>
      <trkpt lat="42.830242" lon="0.995438">
        <ele>1510.4</ele>
        <time>2013-04-21T15:44:18Z</time>
      </trkpt>
      <trkpt lat="42.830327" lon="0.995410">
        <ele>1506.5</ele>
        <time>2013-04-21T15:44:28Z</time>
      </trkpt>
      <trkpt lat="42.830431" lon="0.995404">
        <ele>1503.2</ele>
        <time>2013-04-21T15:44:38Z</time>
      </trkpt>
      <trkpt lat="42.830526" lon="0.995362">
        <ele>1499.8</ele>
        <time>2013-04-21T15:44:47Z</time>
      </trkpt>
      <trkpt lat="42.830614" lon="0.995320">
        <ele>1497.4</ele>
        <time>2013-04-21T15:44:56Z</time>
      </trkpt>
      <trkpt lat="42.830633" lon="0.995218">
        <ele>1492.1</ele>
        <time>2013-04-21T15:45:06Z</time>
      </trkpt>
      <trkpt lat="42.830560" lon="0.995140">
        <ele>1489.2</ele>
        <time>2013-04-21T15:45:14Z</time>
      </trkpt>
      <trkpt lat="42.830476" lon="0.995054">
        <ele>1486.8</ele>
        <time>2013-04-21T15:45:24Z</time>
      </trkpt>
      <trkpt lat="42.830395" lon="0.994972">
        <ele>1485.4</ele>
        <time>2013-04-21T15:45:33Z</time>
      </trkpt>
      <trkpt lat="42.830315" lon="0.994880">
        <ele>1482.5</ele>
        <time>2013-04-21T15:45:41Z</time>
      </trkpt>
      <trkpt lat="42.830235" lon="0.994812">
        <ele>1481.1</ele>
        <time>2013-04-21T15:45:48Z</time>
      </trkpt>
      <trkpt lat="42.830139" lon="0.994780">
        <ele>1480.1</ele>
        <time>2013-04-21T15:45:56Z</time>
      </trkpt>
      <trkpt lat="42.830041" lon="0.994733">
        <ele>1477.2</ele>
        <time>2013-04-21T15:46:04Z</time>
      </trkpt>
      <trkpt lat="42.829941" lon="0.994700">
        <ele>1476.7</ele>
        <time>2013-04-21T15:46:12Z</time>
      </trkpt>
      <trkpt lat="42.829847" lon="0.994645">
        <ele>1473.8</ele>
        <time>2013-04-21T15:46:20Z</time>
      </trkpt>
      <trkpt lat="42.829776" lon="0.994614">
        <ele>1472.4</ele>
        <time>2013-04-21T15:46:28Z</time>
      </trkpt>
      <trkpt lat="42.829685" lon="0.994600">
        <ele>1470.9</ele>
        <time>2013-04-21T15:46:36Z</time>
      </trkpt>
      <trkpt lat="42.829586" lon="0.994597">
        <ele>1469.0</ele>
        <time>2013-04-21T15:46:43Z</time>
      </trkpt>
      <trkpt lat="42.829479" lon="0.994622">
        <ele>1466.6</ele>
        <time>2013-04-21T15:46:50Z</time>
      </trkpt>
      <trkpt lat="42.829380" lon="0.994639">
        <ele>1463.7</ele>
        <time>2013-04-21T15:46:57Z</time>
      </trkpt>
      <trkpt lat="42.829293" lon="0.994654">
        <ele>1462.3</ele>
        <time>2013-04-21T15:47:05Z</time>
      </trkpt>
      <trkpt lat="42.829191" lon="0.994701">
        <ele>1460.9</ele>
        <time>2013-04-21T15:47:13Z</time>
      </trkpt>
      <trkpt lat="42.829095" lon="0.994743">
        <ele>1460.4</ele>
        <time>2013-04-21T15:47:20Z</time>
      </trkpt>
      <trkpt lat="42.829009" lon="0.994791">
        <ele>1460.4</ele>
        <time>2013-04-21T15:47:27Z</time>
      </trkpt>
      <trkpt lat="42.828925" lon="0.994811">
        <ele>1458.5</ele>
        <time>2013-04-21T15:47:34Z</time>
      </trkpt>
      <trkpt lat="42.828831" lon="0.994844">
        <ele>1457.0</ele>
        <time>2013-04-21T15:47:41Z</time>
      </trkpt>
      <trkpt lat="42.828740" lon="0.994820">
        <ele>1454.6</ele>
        <time>2013-04-21T15:47:50Z</time>
      </trkpt>
      <trkpt lat="42.828650" lon="0.994777">
        <ele>1450.8</ele>
        <time>2013-04-21T15:47:58Z</time>
      </trkpt>
      <trkpt lat="42.828554" lon="0.994732">
        <ele>1446.9</ele>
        <time>2013-04-21T15:48:06Z</time>
      </trkpt>
      <trkpt lat="42.828470" lon="0.994672">
        <ele>1442.6</ele>
        <time>2013-04-21T15:48:13Z</time>
      </trkpt>
      <trkpt lat="42.828382" lon="0.994609">
        <ele>1439.7</ele>
        <time>2013-04-21T15:48:22Z</time>
      </trkpt>
      <trkpt lat="42.828306" lon="0.994548">
        <ele>1436.8</ele>
        <time>2013-04-21T15:48:30Z</time>
      </trkpt>
      <trkpt lat="42.828396" lon="0.994486">
        <ele>1433.9</ele>
        <time>2013-04-21T15:48:39Z</time>
      </trkpt>
      <trkpt lat="42.828475" lon="0.994471">
        <ele>1433.0</ele>
        <time>2013-04-21T15:48:49Z</time>
      </trkpt>
      <trkpt lat="42.828381" lon="0.994407">
        <ele>1429.6</ele>
        <time>2013-04-21T15:48:58Z</time>
      </trkpt>
      <trkpt lat="42.828281" lon="0.994348">
        <ele>1425.8</ele>
        <time>2013-04-21T15:49:07Z</time>
      </trkpt>
      <trkpt lat="42.828172" lon="0.994304">
        <ele>1422.4</ele>
        <time>2013-04-21T15:49:15Z</time>
      </trkpt>
      <trkpt lat="42.828247" lon="0.994195">
        <ele>1417.6</ele>
        <time>2013-04-21T15:49:24Z</time>
      </trkpt>
      <trkpt lat="42.828171" lon="0.994116">
        <ele>1413.8</ele>
        <time>2013-04-21T15:49:33Z</time>
      </trkpt>
      <trkpt lat="42.828072" lon="0.994078">
        <ele>1410.4</ele>
        <time>2013-04-21T15:49:42Z</time>
      </trkpt>
      <trkpt lat="42.828071" lon="0.993981">
        <ele>1406.1</ele>
        <time>2013-04-21T15:49:51Z</time>
      </trkpt>
      <trkpt lat="42.828011" lon="0.994010">
        <ele>1403.2</ele>
        <time>2013-04-21T15:50:00Z</time>
      </trkpt>
      <trkpt lat="42.827906" lon="0.994119">
        <ele>1402.7</ele>
        <time>2013-04-21T15:50:23Z</time>
      </trkpt>
      <trkpt lat="42.827751" lon="0.994178">
        <ele>1398.4</ele>
        <time>2013-04-21T15:50:35Z</time>
      </trkpt>
      <trkpt lat="42.827631" lon="0.994247">
        <ele>1395.0</ele>
        <time>2013-04-21T15:50:46Z</time>
      </trkpt>
      <trkpt lat="42.827610" lon="0.994164">
        <ele>1391.2</ele>
        <time>2013-04-21T15:50:57Z</time>
      </trkpt>
      <trkpt lat="42.827544" lon="0.994144">
        <ele>1386.8</ele>
        <time>2013-04-21T15:51:08Z</time>
      </trkpt>
      <trkpt lat="42.827529" lon="0.994041">
        <ele>1382.0</ele>
        <time>2013-04-21T15:51:21Z</time>
      </trkpt>
      <trkpt lat="42.827420" lon="0.994066">
        <ele>1378.7</ele>
        <time>2013-04-21T15:51:29Z</time>
      </trkpt>
      <trkpt lat="42.827444" lon="0.993938">
        <ele>1373.4</ele>
        <time>2013-04-21T15:51:40Z</time>
      </trkpt>
      <trkpt lat="42.827534" lon="0.993798">
        <ele>1369.5</ele>
        <time>2013-04-21T15:51:50Z</time>
      </trkpt>
      <trkpt lat="42.827533" lon="0.993698">
        <ele>1365.2</ele>
        <time>2013-04-21T15:52:02Z</time>
      </trkpt>
      <trkpt lat="42.827465" lon="0.993653">
        <ele>1360.4</ele>
        <time>2013-04-21T15:52:13Z</time>
      </trkpt>
      <trkpt lat="42.827417" lon="0.993591">
        <ele>1353.2</ele>
        <time>2013-04-21T15:52:27Z</time>
      </trkpt>
      <trkpt lat="42.827284" lon="0.993614">
        <ele>1347.4</ele>
        <time>2013-04-21T15:52:38Z</time>
      </trkpt>
      <trkpt lat="42.827143" lon="0.993622">
        <ele>1342.6</ele>
        <time>2013-04-21T15:52:49Z</time>
      </trkpt>
      <trkpt lat="42.827031" lon="0.993705">
        <ele>1339.2</ele>
        <time>2013-04-21T15:52:58Z</time>
      </trkpt>
      <trkpt lat="42.826943" lon="0.993846">
        <ele>1335.9</ele>
        <time>2013-04-21T15:53:07Z</time>
      </trkpt>
      <trkpt lat="42.826860" lon="0.993988">
        <ele>1332.0</ele>
        <time>2013-04-21T15:53:17Z</time>
      </trkpt>
      <trkpt lat="42.826796" lon="0.994164">
        <ele>1332.0</ele>
        <time>2013-04-21T15:53:29Z</time>
      </trkpt>
      <trkpt lat="42.826722" lon="0.994336">
        <ele>1328.2</ele>
        <time>2013-04-21T15:53:39Z</time>
      </trkpt>
      <trkpt lat="42.826632" lon="0.994482">
        <ele>1325.3</ele>
        <time>2013-04-21T15:53:47Z</time>
      </trkpt>
      <trkpt lat="42.826566" lon="0.994489">
        <ele>1322.9</ele>
        <time>2013-04-21T15:53:56Z</time>
      </trkpt>
      <trkpt lat="42.826591" lon="0.994342">
        <ele>1321.9</ele>
        <time>2013-04-21T15:54:04Z</time>
      </trkpt>
      <trkpt lat="42.826614" lon="0.994157">
        <ele>1320.5</ele>
        <time>2013-04-21T15:54:13Z</time>
      </trkpt>
      <trkpt lat="42.826621" lon="0.994070">
        <ele>1318.1</ele>
        <time>2013-04-21T15:54:23Z</time>
      </trkpt>
      <trkpt lat="42.826540" lon="0.994224">
        <ele>1314.7</ele>
        <time>2013-04-21T15:54:34Z</time>
      </trkpt>
      <trkpt lat="42.826439" lon="0.994360">
        <ele>1311.4</ele>
        <time>2013-04-21T15:54:44Z</time>
      </trkpt>
      <trkpt lat="42.826417" lon="0.994240">
        <ele>1308.5</ele>
        <time>2013-04-21T15:54:52Z</time>
      </trkpt>
      <trkpt lat="42.826407" lon="0.994103">
        <ele>1305.1</ele>
        <time>2013-04-21T15:55:00Z</time>
      </trkpt>
      <trkpt lat="42.826360" lon="0.994165">
        <ele>1301.8</ele>
        <time>2013-04-21T15:55:11Z</time>
      </trkpt>
      <trkpt lat="42.826299" lon="0.994339">
        <ele>1297.9</ele>
        <time>2013-04-21T15:55:22Z</time>
      </trkpt>
      <trkpt lat="42.826228" lon="0.994524">
        <ele>1295.0</ele>
        <time>2013-04-21T15:55:31Z</time>
      </trkpt>
      <trkpt lat="42.826202" lon="0.994360">
        <ele>1291.2</ele>
        <time>2013-04-21T15:55:40Z</time>
      </trkpt>
      <trkpt lat="42.826212" lon="0.994183">
        <ele>1288.8</ele>
        <time>2013-04-21T15:55:49Z</time>
      </trkpt>
      <trkpt lat="42.826205" lon="0.994033">
        <ele>1286.9</ele>
        <time>2013-04-21T15:55:56Z</time>
      </trkpt>
      <trkpt lat="42.826230" lon="0.993877">
        <ele>1284.0</ele>
        <time>2013-04-21T15:56:04Z</time>
      </trkpt>
      <trkpt lat="42.826188" lon="0.993833">
        <ele>1281.1</ele>
        <time>2013-04-21T15:56:13Z</time>
      </trkpt>
      <trkpt lat="42.826098" lon="0.993925">
        <ele>1277.7</ele>
        <time>2013-04-21T15:56:22Z</time>
      </trkpt>
      <trkpt lat="42.826040" lon="0.994098">
        <ele>1275.3</ele>
        <time>2013-04-21T15:56:31Z</time>
      </trkpt>
      <trkpt lat="42.826012" lon="0.994027">
        <ele>1271.0</ele>
        <time>2013-04-21T15:56:42Z</time>
      </trkpt>
      <trkpt lat="42.825976" lon="0.993876">
        <ele>1269.1</ele>
        <time>2013-04-21T15:56:49Z</time>
      </trkpt>
      <trkpt lat="42.825984" lon="0.993740">
        <ele>1265.2</ele>
        <time>2013-04-21T15:57:02Z</time>
      </trkpt>
      <trkpt lat="42.825926" lon="0.993712">
        <ele>1259.5</ele>
        <time>2013-04-21T15:57:21Z</time>
      </trkpt>
      <trkpt lat="42.825870" lon="0.993615">
        <ele>1255.1</ele>
        <time>2013-04-21T15:58:13Z</time>
      </trkpt>
      <trkpt lat="42.825869" lon="0.993459">
        <ele>1249.8</ele>
        <time>2013-04-21T15:58:25Z</time>
      </trkpt>
      <trkpt lat="42.825912" lon="0.993322">
        <ele>1246.0</ele>
        <time>2013-04-21T15:58:34Z</time>
      </trkpt>
      <trkpt lat="42.825876" lon="0.993293">
        <ele>1241.7</ele>
        <time>2013-04-21T15:58:45Z</time>
      </trkpt>
      <trkpt lat="42.825884" lon="0.993126">
        <ele>1235.9</ele>
        <time>2013-04-21T15:59:00Z</time>
      </trkpt>
      <trkpt lat="42.825891" lon="0.992988">
        <ele>1229.7</ele>
        <time>2013-04-21T15:59:12Z</time>
      </trkpt>
      <trkpt lat="42.825926" lon="0.992865">
        <ele>1226.8</ele>
        <time>2013-04-21T15:59:23Z</time>
      </trkpt>
      <trkpt lat="42.825845" lon="0.992895">
        <ele>1224.9</ele>
        <time>2013-04-21T15:59:31Z</time>
      </trkpt>
      <trkpt lat="42.825921" lon="0.992780">
        <ele>1222.4</ele>
        <time>2013-04-21T15:59:38Z</time>
      </trkpt>
      <trkpt lat="42.825870" lon="0.992729">
        <ele>1217.7</ele>
        <time>2013-04-21T15:59:52Z</time>
      </trkpt>
      <trkpt lat="42.825810" lon="0.992619">
        <ele>1210.4</ele>
        <time>2013-04-21T16:00:08Z</time>
      </trkpt>
      <trkpt lat="42.825892" lon="0.992466">
        <ele>1209.5</ele>
        <time>2013-04-21T16:00:20Z</time>
      </trkpt>
      <trkpt lat="42.825976" lon="0.992308">
        <ele>1202.8</ele>
        <time>2013-04-21T16:00:30Z</time>
      </trkpt>
      <trkpt lat="42.826050" lon="0.992083">
        <ele>1199.4</ele>
        <time>2013-04-21T16:00:42Z</time>
      </trkpt>
      <trkpt lat="42.825952" lon="0.992058">
        <ele>1195.5</ele>
        <time>2013-04-21T16:00:51Z</time>
      </trkpt>
      <trkpt lat="42.825838" lon="0.992180">
        <ele>1191.2</ele>
        <time>2013-04-21T16:01:03Z</time>
      </trkpt>
      <trkpt lat="42.825697" lon="0.992296">
        <ele>1186.4</ele>
        <time>2013-04-21T16:01:16Z</time>
      </trkpt>
      <trkpt lat="42.825539" lon="0.992155">
        <ele>1177.3</ele>
        <time>2013-04-21T16:01:36Z</time>
      </trkpt>
      <trkpt lat="42.825448" lon="0.992124">
        <ele>1170.5</ele>
        <time>2013-04-21T16:01:57Z</time>
      </trkpt>
      <trkpt lat="42.825298" lon="0.992111">
        <ele>1164.8</ele>
        <time>2013-04-21T16:02:11Z</time>
      </trkpt>
      <trkpt lat="42.825258" lon="0.991990">
        <ele>1159.5</ele>
        <time>2013-04-21T16:02:25Z</time>
      </trkpt>
      <trkpt lat="42.825333" lon="0.991886">
        <ele>1156.6</ele>
        <time>2013-04-21T16:02:36Z</time>
      </trkpt>
      <trkpt lat="42.825440" lon="0.991793">
        <ele>1153.2</ele>
        <time>2013-04-21T16:02:49Z</time>
      </trkpt>
      <trkpt lat="42.825448" lon="0.991670">
        <ele>1147.0</ele>
        <time>2013-04-21T16:03:03Z</time>
      </trkpt>
      <trkpt lat="42.825340" lon="0.991698">
        <ele>1144.1</ele>
        <time>2013-04-21T16:03:16Z</time>
      </trkpt>
      <trkpt lat="42.825212" lon="0.991671">
        <ele>1141.2</ele>
        <time>2013-04-21T16:03:28Z</time>
      </trkpt>
      <trkpt lat="42.825255" lon="0.991563">
        <ele>1139.3</ele>
        <time>2013-04-21T16:03:35Z</time>
      </trkpt>
      <trkpt lat="42.825316" lon="0.991472">
        <ele>1136.4</ele>
        <time>2013-04-21T16:03:45Z</time>
      </trkpt>
      <trkpt lat="42.825261" lon="0.991335">
        <ele>1128.7</ele>
        <time>2013-04-21T16:03:55Z</time>
      </trkpt>
      <trkpt lat="42.825231" lon="0.991181">
        <ele>1121.5</ele>
        <time>2013-04-21T16:04:04Z</time>
      </trkpt>
      <trkpt lat="42.825181" lon="0.991044">
        <ele>1116.2</ele>
        <time>2013-04-21T16:04:11Z</time>
      </trkpt>
      <trkpt lat="42.825185" lon="0.990910">
        <ele>1112.9</ele>
        <time>2013-04-21T16:04:17Z</time>
      </trkpt>
      <trkpt lat="42.825194" lon="0.990740">
        <ele>1104.7</ele>
        <time>2013-04-21T16:04:28Z</time>
      </trkpt>
      <trkpt lat="42.825162" lon="0.990630">
        <ele>1098.9</ele>
        <time>2013-04-21T16:04:36Z</time>
      </trkpt>
      <trkpt lat="42.825188" lon="0.990573">
        <ele>1094.1</ele>
        <time>2013-04-21T16:04:54Z</time>
      </trkpt>
      <trkpt lat="42.825192" lon="0.990427">
        <ele>1087.9</ele>
        <time>2013-04-21T16:05:03Z</time>
      </trkpt>
      <trkpt lat="42.825159" lon="0.990279">
        <ele>1081.6</ele>
        <time>2013-04-21T16:05:11Z</time>
      </trkpt>
      <trkpt lat="42.825105" lon="0.990174">
        <ele>1077.3</ele>
        <time>2013-04-21T16:05:18Z</time>
      </trkpt>
      <trkpt lat="42.825074" lon="0.990040">
        <ele>1070.6</ele>
        <time>2013-04-21T16:05:26Z</time>
      </trkpt>
      <trkpt lat="42.825056" lon="0.989911">
        <ele>1065.3</ele>
        <time>2013-04-21T16:05:34Z</time>
      </trkpt>
      <trkpt lat="42.825062" lon="0.989761">
        <ele>1060.5</ele>
        <time>2013-04-21T16:05:42Z</time>
      </trkpt>
      <trkpt lat="42.825076" lon="0.989627">
        <ele>1054.7</ele>
        <time>2013-04-21T16:05:49Z</time>
      </trkpt>
      <trkpt lat="42.825075" lon="0.989497">
        <ele>1049.4</ele>
        <time>2013-04-21T16:05:56Z</time>
      </trkpt>
      <trkpt lat="42.825112" lon="0.989435">
        <ele>1045.1</ele>
        <time>2013-04-21T16:06:16Z</time>
      </trkpt>
      <trkpt lat="42.825125" lon="0.989291">
        <ele>1037.9</ele>
        <time>2013-04-21T16:06:35Z</time>
      </trkpt>
      <trkpt lat="42.825146" lon="0.989127">
        <ele>1032.1</ele>
        <time>2013-04-21T16:06:42Z</time>
      </trkpt>
      <trkpt lat="42.825113" lon="0.989011">
        <ele>1032.1</ele>
        <time>2013-04-21T16:29:56Z</time>
      </trkpt>
      <trkpt lat="42.825214" lon="0.988936">
        <ele>1030.7</ele>
        <time>2013-04-21T16:30:04Z</time>
      </trkpt>
      <trkpt lat="42.825321" lon="0.988891">
        <ele>1029.2</ele>
        <time>2013-04-21T16:30:13Z</time>
      </trkpt>
      <trkpt lat="42.825411" lon="0.988832">
        <ele>1027.3</ele>
        <time>2013-04-21T16:30:22Z</time>
      </trkpt>
      <trkpt lat="42.825503" lon="0.988758">
        <ele>1025.4</ele>
        <time>2013-04-21T16:30:33Z</time>
      </trkpt>
      <trkpt lat="42.825602" lon="0.988696">
        <ele>1023.5</ele>
        <time>2013-04-21T16:30:42Z</time>
      </trkpt>
      <trkpt lat="42.825704" lon="0.988625">
        <ele>1021.5</ele>
        <time>2013-04-21T16:30:51Z</time>
      </trkpt>
      <trkpt lat="42.825809" lon="0.988565">
        <ele>1020.6</ele>
        <time>2013-04-21T16:30:59Z</time>
      </trkpt>
      <trkpt lat="42.825900" lon="0.988495">
        <ele>1018.7</ele>
        <time>2013-04-21T16:31:09Z</time>
      </trkpt>
      <trkpt lat="42.826006" lon="0.988417">
        <ele>1017.2</ele>
        <time>2013-04-21T16:31:18Z</time>
      </trkpt>
      <trkpt lat="42.826109" lon="0.988326">
        <ele>1015.3</ele>
        <time>2013-04-21T16:31:27Z</time>
      </trkpt>
      <trkpt lat="42.826211" lon="0.988248">
        <ele>1013.8</ele>
        <time>2013-04-21T16:31:36Z</time>
      </trkpt>
      <trkpt lat="42.826319" lon="0.988180">
        <ele>1011.9</ele>
        <time>2013-04-21T16:31:47Z</time>
      </trkpt>
      <trkpt lat="42.826436" lon="0.988155">
        <ele>1011.0</ele>
        <time>2013-04-21T16:31:59Z</time>
      </trkpt>
      <trkpt lat="42.826526" lon="0.987976">
        <ele>1007.6</ele>
        <time>2013-04-21T16:32:12Z</time>
      </trkpt>
      <trkpt lat="42.826672" lon="0.987880">
        <ele>1005.2</ele>
        <time>2013-04-21T16:32:21Z</time>
      </trkpt>
      <trkpt lat="42.826753" lon="0.987737">
        <ele>1002.3</ele>
        <time>2013-04-21T16:32:31Z</time>
      </trkpt>
      <trkpt lat="42.826867" lon="0.987610">
        <ele>1000.4</ele>
        <time>2013-04-21T16:32:40Z</time>
      </trkpt>
      <trkpt lat="42.826974" lon="0.987470">
        <ele>999.0</ele>
        <time>2013-04-21T16:32:48Z</time>
      </trkpt>
      <trkpt lat="42.827089" lon="0.987383">
        <ele>997.0</ele>
        <time>2013-04-21T16:32:59Z</time>
      </trkpt>
      <trkpt lat="42.827199" lon="0.987310">
        <ele>994.6</ele>
        <time>2013-04-21T16:33:11Z</time>
      </trkpt>
      <trkpt lat="42.827319" lon="0.987209">
        <ele>992.7</ele>
        <time>2013-04-21T16:33:22Z</time>
      </trkpt>
      <trkpt lat="42.827418" lon="0.987097">
        <ele>990.8</ele>
        <time>2013-04-21T16:33:33Z</time>
      </trkpt>
      <trkpt lat="42.827556" lon="0.986982">
        <ele>989.3</ele>
        <time>2013-04-21T16:33:46Z</time>
      </trkpt>
      <trkpt lat="42.827699" lon="0.986851">
        <ele>987.4</ele>
        <time>2013-04-21T16:34:00Z</time>
      </trkpt>
      <trkpt lat="42.827818" lon="0.986780">
        <ele>986.9</ele>
        <time>2013-04-21T16:34:09Z</time>
      </trkpt>
      <trkpt lat="42.827949" lon="0.986667">
        <ele>985.0</ele>
        <time>2013-04-21T16:34:18Z</time>
      </trkpt>
      <trkpt lat="42.828081" lon="0.986573">
        <ele>985.0</ele>
        <time>2013-04-21T16:34:28Z</time>
      </trkpt>
      <trkpt lat="42.828207" lon="0.986442">
        <ele>985.0</ele>
        <time>2013-04-21T16:34:39Z</time>
      </trkpt>
      <trkpt lat="42.828329" lon="0.986308">
        <ele>984.5</ele>
        <time>2013-04-21T16:34:51Z</time>
      </trkpt>
      <trkpt lat="42.828427" lon="0.986168">
        <ele>983.1</ele>
        <time>2013-04-21T16:35:00Z</time>
      </trkpt>
      <trkpt lat="42.828509" lon="0.985981">
        <ele>981.2</ele>
        <time>2013-04-21T16:35:12Z</time>
      </trkpt>
      <trkpt lat="42.828611" lon="0.985870">
        <ele>980.7</ele>
        <time>2013-04-21T16:35:23Z</time>
      </trkpt>
      <trkpt lat="42.828735" lon="0.985760">
        <ele>980.2</ele>
        <time>2013-04-21T16:35:32Z</time>
      </trkpt>
      <trkpt lat="42.828899" lon="0.985651">
        <ele>980.7</ele>
        <time>2013-04-21T16:35:43Z</time>
      </trkpt>
      <trkpt lat="42.829060" lon="0.985554">
        <ele>978.8</ele>
        <time>2013-04-21T16:35:58Z</time>
      </trkpt>
      <trkpt lat="42.829183" lon="0.985414">
        <ele>976.4</ele>
        <time>2013-04-21T16:36:09Z</time>
      </trkpt>
      <trkpt lat="42.829315" lon="0.985309">
        <ele>974.0</ele>
        <time>2013-04-21T16:36:18Z</time>
      </trkpt>
      <trkpt lat="42.829446" lon="0.985285">
        <ele>972.0</ele>
        <time>2013-04-21T16:36:26Z</time>
      </trkpt>
      <trkpt lat="42.829605" lon="0.985314">
        <ele>969.6</ele>
        <time>2013-04-21T16:36:37Z</time>
      </trkpt>
      <trkpt lat="42.829746" lon="0.985355">
        <ele>967.2</ele>
        <time>2013-04-21T16:36:45Z</time>
      </trkpt>
      <trkpt lat="42.829855" lon="0.985424">
        <ele>965.3</ele>
        <time>2013-04-21T16:36:53Z</time>
      </trkpt>
      <trkpt lat="42.829950" lon="0.985507">
        <ele>963.4</ele>
        <time>2013-04-21T16:37:03Z</time>
      </trkpt>
      <trkpt lat="42.830072" lon="0.985605">
        <ele>960.5</ele>
        <time>2013-04-21T16:37:18Z</time>
      </trkpt>
      <trkpt lat="42.830250" lon="0.985694">
        <ele>957.1</ele>
        <time>2013-04-21T16:37:32Z</time>
      </trkpt>
      <trkpt lat="42.830386" lon="0.985827">
        <ele>953.8</ele>
        <time>2013-04-21T16:37:45Z</time>
      </trkpt>
      <trkpt lat="42.830520" lon="0.985929">
        <ele>950.4</ele>
        <time>2013-04-21T16:37:57Z</time>
      </trkpt>
      <trkpt lat="42.830674" lon="0.986022">
        <ele>948.0</ele>
        <time>2013-04-21T16:38:08Z</time>
      </trkpt>
      <trkpt lat="42.830812" lon="0.986126">
        <ele>946.1</ele>
        <time>2013-04-21T16:38:19Z</time>
      </trkpt>
      <trkpt lat="42.830951" lon="0.986248">
        <ele>944.2</ele>
        <time>2013-04-21T16:38:32Z</time>
      </trkpt>
      <trkpt lat="42.831159" lon="0.986318">
        <ele>940.3</ele>
        <time>2013-04-21T16:38:50Z</time>
      </trkpt>
      <trkpt lat="42.831324" lon="0.986414">
        <ele>936.0</ele>
        <time>2013-04-21T16:39:04Z</time>
      </trkpt>
      <trkpt lat="42.831467" lon="0.986548">
        <ele>932.1</ele>
        <time>2013-04-21T16:39:18Z</time>
      </trkpt>
      <trkpt lat="42.831569" lon="0.986674">
        <ele>928.8</ele>
        <time>2013-04-21T16:39:29Z</time>
      </trkpt>
      <trkpt lat="42.831709" lon="0.986799">
        <ele>924.5</ele>
        <time>2013-04-21T16:39:48Z</time>
      </trkpt>
      <trkpt lat="42.831859" lon="0.986878">
        <ele>922.5</ele>
        <time>2013-04-21T16:40:00Z</time>
      </trkpt>
      <trkpt lat="42.832016" lon="0.986957">
        <ele>919.2</ele>
        <time>2013-04-21T16:40:12Z</time>
      </trkpt>
      <trkpt lat="42.832168" lon="0.986999">
        <ele>916.3</ele>
        <time>2013-04-21T16:40:23Z</time>
      </trkpt>
      <trkpt lat="42.832327" lon="0.987045">
        <ele>913.4</ele>
        <time>2013-04-21T16:40:36Z</time>
      </trkpt>
      <trkpt lat="42.832498" lon="0.987073">
        <ele>910.0</ele>
        <time>2013-04-21T16:40:50Z</time>
      </trkpt>
      <trkpt lat="42.832664" lon="0.987103">
        <ele>907.1</ele>
        <time>2013-04-21T16:41:04Z</time>
      </trkpt>
      <trkpt lat="42.832809" lon="0.987111">
        <ele>903.8</ele>
        <time>2013-04-21T16:41:14Z</time>
      </trkpt>
      <trkpt lat="42.832965" lon="0.987068">
        <ele>899.9</ele>
        <time>2013-04-21T16:41:27Z</time>
      </trkpt>
      <trkpt lat="42.833117" lon="0.987041">
        <ele>896.1</ele>
        <time>2013-04-21T16:41:40Z</time>
      </trkpt>
      <trkpt lat="42.833263" lon="0.987016">
        <ele>892.2</ele>
        <time>2013-04-21T16:41:52Z</time>
      </trkpt>
      <trkpt lat="42.833367" lon="0.986885">
        <ele>890.8</ele>
        <time>2013-04-21T16:42:02Z</time>
      </trkpt>
      <trkpt lat="42.833517" lon="0.986732">
        <ele>889.4</ele>
        <time>2013-04-21T16:42:28Z</time>
      </trkpt>
    </trkseg>
  </trk>
</gpx>

